<?xml version="1.0" encoding="UTF-8" standalone="no" ?>
<gpx xmlns="http://www.topografix.com/GPX/1/1" xmlns:xsi="http://www.w3.org/2001/XMLSchema-instance" xsi:schemaLocation="http://www.topografix.com/GPX/1/1 http://www.topografix.com/GPX/1/1/gpx.xsd" version="1.1" creator="VisuGPX - https://www.visugpx.com">
  <metadata>
    <name>Course à pied dans l'après-midi</name>
  </metadata>
  <trk>
    <name><![CDATA[Course à pied dans l'après-midi_1]]></name>
    <trkseg>
      <trkpt lat="45.78802" lon="-1.16248">
        <ele>9.9</ele>
        <time>2023-10-26T15:20:55Z</time>
      </trkpt>
      <trkpt lat="45.78803" lon="-1.16246">
        <ele>9.9</ele>
        <time>2023-10-26T15:20:56Z</time>
      </trkpt>
      <trkpt lat="45.78814" lon="-1.16225">
        <ele>9.7</ele>
        <time>2023-10-26T15:21:02Z</time>
      </trkpt>
      <trkpt lat="45.78826" lon="-1.162">
        <ele>9.6</ele>
        <time>2023-10-26T15:21:08Z</time>
      </trkpt>
      <trkpt lat="45.78838" lon="-1.16175">
        <ele>9.4</ele>
        <time>2023-10-26T15:21:14Z</time>
      </trkpt>
      <trkpt lat="45.78847" lon="-1.16153">
        <ele>9.3</ele>
        <time>2023-10-26T15:21:19Z</time>
      </trkpt>
      <trkpt lat="45.78856" lon="-1.16127">
        <ele>9.3</ele>
        <time>2023-10-26T15:21:25Z</time>
      </trkpt>
      <trkpt lat="45.78866" lon="-1.16102">
        <ele>9.2</ele>
        <time>2023-10-26T15:21:31Z</time>
      </trkpt>
      <trkpt lat="45.78876" lon="-1.16077">
        <ele>9.2</ele>
        <time>2023-10-26T15:21:37Z</time>
      </trkpt>
      <trkpt lat="45.78886" lon="-1.16056">
        <ele>9.2</ele>
        <time>2023-10-26T15:21:43Z</time>
      </trkpt>
      <trkpt lat="45.78896" lon="-1.16032">
        <ele>9.1</ele>
        <time>2023-10-26T15:21:49Z</time>
      </trkpt>
      <trkpt lat="45.78907" lon="-1.16008">
        <ele>9.2</ele>
        <time>2023-10-26T15:21:55Z</time>
      </trkpt>
      <trkpt lat="45.78916" lon="-1.15982">
        <ele>9.1</ele>
        <time>2023-10-26T15:22:02Z</time>
      </trkpt>
      <trkpt lat="45.78924" lon="-1.15959">
        <ele>8.9</ele>
        <time>2023-10-26T15:22:08Z</time>
      </trkpt>
      <trkpt lat="45.78934" lon="-1.15935">
        <ele>8.8</ele>
        <time>2023-10-26T15:22:15Z</time>
      </trkpt>
      <trkpt lat="45.78941" lon="-1.15926">
        <ele>8.8</ele>
        <time>2023-10-26T15:22:19Z</time>
      </trkpt>
      <trkpt lat="45.78961" lon="-1.15935">
        <ele>8.9</ele>
        <time>2023-10-26T15:22:26Z</time>
      </trkpt>
      <trkpt lat="45.7898" lon="-1.15947">
        <ele>8.9</ele>
        <time>2023-10-26T15:22:33Z</time>
      </trkpt>
      <trkpt lat="45.78999" lon="-1.15958">
        <ele>9</ele>
        <time>2023-10-26T15:22:40Z</time>
      </trkpt>
      <trkpt lat="45.79017" lon="-1.1597">
        <ele>9</ele>
        <time>2023-10-26T15:22:46Z</time>
      </trkpt>
      <trkpt lat="45.79037" lon="-1.1598">
        <ele>9</ele>
        <time>2023-10-26T15:22:52Z</time>
      </trkpt>
      <trkpt lat="45.79057" lon="-1.15988">
        <ele>9.1</ele>
        <time>2023-10-26T15:22:58Z</time>
      </trkpt>
      <trkpt lat="45.79074" lon="-1.15999">
        <ele>9.2</ele>
        <time>2023-10-26T15:23:04Z</time>
      </trkpt>
      <trkpt lat="45.79093" lon="-1.16009">
        <ele>9.3</ele>
        <time>2023-10-26T15:23:10Z</time>
      </trkpt>
      <trkpt lat="45.79112" lon="-1.16018">
        <ele>9.4</ele>
        <time>2023-10-26T15:23:16Z</time>
      </trkpt>
      <trkpt lat="45.79131" lon="-1.16027">
        <ele>9.5</ele>
        <time>2023-10-26T15:23:22Z</time>
      </trkpt>
      <trkpt lat="45.79149" lon="-1.16038">
        <ele>9.7</ele>
        <time>2023-10-26T15:23:28Z</time>
      </trkpt>
      <trkpt lat="45.79168" lon="-1.16048">
        <ele>9.8</ele>
        <time>2023-10-26T15:23:34Z</time>
      </trkpt>
      <trkpt lat="45.79186" lon="-1.16058">
        <ele>9.9</ele>
        <time>2023-10-26T15:23:40Z</time>
      </trkpt>
      <trkpt lat="45.79203" lon="-1.16069">
        <ele>10</ele>
        <time>2023-10-26T15:23:46Z</time>
      </trkpt>
      <trkpt lat="45.7922" lon="-1.16079">
        <ele>10</ele>
        <time>2023-10-26T15:23:52Z</time>
      </trkpt>
      <trkpt lat="45.79232" lon="-1.16102">
        <ele>9.9</ele>
        <time>2023-10-26T15:23:59Z</time>
      </trkpt>
      <trkpt lat="45.79245" lon="-1.16122">
        <ele>9.8</ele>
        <time>2023-10-26T15:24:05Z</time>
      </trkpt>
      <trkpt lat="45.79263" lon="-1.16136">
        <ele>9.8</ele>
        <time>2023-10-26T15:24:12Z</time>
      </trkpt>
      <trkpt lat="45.79277" lon="-1.16153">
        <ele>9.8</ele>
        <time>2023-10-26T15:24:18Z</time>
      </trkpt>
      <trkpt lat="45.79291" lon="-1.16173">
        <ele>10</ele>
        <time>2023-10-26T15:24:24Z</time>
      </trkpt>
      <trkpt lat="45.79294" lon="-1.16198">
        <ele>10.2</ele>
        <time>2023-10-26T15:24:30Z</time>
      </trkpt>
      <trkpt lat="45.79299" lon="-1.16224">
        <ele>10.3</ele>
        <time>2023-10-26T15:24:36Z</time>
      </trkpt>
      <trkpt lat="45.79309" lon="-1.16247">
        <ele>10.5</ele>
        <time>2023-10-26T15:24:42Z</time>
      </trkpt>
      <trkpt lat="45.79316" lon="-1.16274">
        <ele>10.7</ele>
        <time>2023-10-26T15:24:49Z</time>
      </trkpt>
      <trkpt lat="45.7932" lon="-1.16301">
        <ele>10.8</ele>
        <time>2023-10-26T15:24:56Z</time>
      </trkpt>
      <trkpt lat="45.7932" lon="-1.16328">
        <ele>11.1</ele>
        <time>2023-10-26T15:25:02Z</time>
      </trkpt>
      <trkpt lat="45.79321" lon="-1.16354">
        <ele>11.3</ele>
        <time>2023-10-26T15:25:08Z</time>
      </trkpt>
      <trkpt lat="45.79312" lon="-1.16379">
        <ele>11.4</ele>
        <time>2023-10-26T15:25:14Z</time>
      </trkpt>
      <trkpt lat="45.79302" lon="-1.16407">
        <ele>11.6</ele>
        <time>2023-10-26T15:25:21Z</time>
      </trkpt>
      <trkpt lat="45.79292" lon="-1.16432">
        <ele>11.6</ele>
        <time>2023-10-26T15:25:27Z</time>
      </trkpt>
      <trkpt lat="45.79282" lon="-1.16455">
        <ele>11.7</ele>
        <time>2023-10-26T15:25:33Z</time>
      </trkpt>
      <trkpt lat="45.79272" lon="-1.16478">
        <ele>11.7</ele>
        <time>2023-10-26T15:25:39Z</time>
      </trkpt>
      <trkpt lat="45.79263" lon="-1.16503">
        <ele>11.7</ele>
        <time>2023-10-26T15:25:46Z</time>
      </trkpt>
      <trkpt lat="45.79254" lon="-1.16528">
        <ele>11.6</ele>
        <time>2023-10-26T15:25:52Z</time>
      </trkpt>
      <trkpt lat="45.79244" lon="-1.16554">
        <ele>11.6</ele>
        <time>2023-10-26T15:25:59Z</time>
      </trkpt>
      <trkpt lat="45.79236" lon="-1.16579">
        <ele>11.7</ele>
        <time>2023-10-26T15:26:05Z</time>
      </trkpt>
      <trkpt lat="45.79228" lon="-1.16606">
        <ele>11.7</ele>
        <time>2023-10-26T15:26:12Z</time>
      </trkpt>
      <trkpt lat="45.79219" lon="-1.16631">
        <ele>11.7</ele>
        <time>2023-10-26T15:26:18Z</time>
      </trkpt>
      <trkpt lat="45.79209" lon="-1.16655">
        <ele>11.7</ele>
        <time>2023-10-26T15:26:24Z</time>
      </trkpt>
      <trkpt lat="45.79199" lon="-1.16679">
        <ele>11.7</ele>
        <time>2023-10-26T15:26:30Z</time>
      </trkpt>
      <trkpt lat="45.79192" lon="-1.16704">
        <ele>11.6</ele>
        <time>2023-10-26T15:26:36Z</time>
      </trkpt>
      <trkpt lat="45.79184" lon="-1.16731">
        <ele>11.4</ele>
        <time>2023-10-26T15:26:42Z</time>
      </trkpt>
      <trkpt lat="45.79175" lon="-1.16758">
        <ele>11.4</ele>
        <time>2023-10-26T15:26:48Z</time>
      </trkpt>
      <trkpt lat="45.79166" lon="-1.16785">
        <ele>11.4</ele>
        <time>2023-10-26T15:26:54Z</time>
      </trkpt>
      <trkpt lat="45.79155" lon="-1.16807">
        <ele>11.4</ele>
        <time>2023-10-26T15:27:00Z</time>
      </trkpt>
      <trkpt lat="45.79146" lon="-1.16834">
        <ele>11.6</ele>
        <time>2023-10-26T15:27:08Z</time>
      </trkpt>
      <trkpt lat="45.79137" lon="-1.16856">
        <ele>11.7</ele>
        <time>2023-10-26T15:27:14Z</time>
      </trkpt>
      <trkpt lat="45.79131" lon="-1.16882">
        <ele>12</ele>
        <time>2023-10-26T15:27:23Z</time>
      </trkpt>
      <trkpt lat="45.79122" lon="-1.16907">
        <ele>12.2</ele>
        <time>2023-10-26T15:27:30Z</time>
      </trkpt>
      <trkpt lat="45.79116" lon="-1.16935">
        <ele>12</ele>
        <time>2023-10-26T15:27:38Z</time>
      </trkpt>
      <trkpt lat="45.79108" lon="-1.16959">
        <ele>11.9</ele>
        <time>2023-10-26T15:27:44Z</time>
      </trkpt>
      <trkpt lat="45.79097" lon="-1.16982">
        <ele>11.7</ele>
        <time>2023-10-26T15:27:49Z</time>
      </trkpt>
      <trkpt lat="45.79087" lon="-1.17006">
        <ele>11.7</ele>
        <time>2023-10-26T15:27:55Z</time>
      </trkpt>
      <trkpt lat="45.7908" lon="-1.17032">
        <ele>11.8</ele>
        <time>2023-10-26T15:28:02Z</time>
      </trkpt>
      <trkpt lat="45.79069" lon="-1.17061">
        <ele>11.9</ele>
        <time>2023-10-26T15:28:53Z</time>
      </trkpt>
      <trkpt lat="45.7907" lon="-1.17063">
        <ele>11.9</ele>
        <time>2023-10-26T15:28:54Z</time>
      </trkpt>
      <trkpt lat="45.79068" lon="-1.17093">
        <ele>12</ele>
        <time>2023-10-26T15:29:02Z</time>
      </trkpt>
      <trkpt lat="45.79056" lon="-1.1712">
        <ele>12.2</ele>
        <time>2023-10-26T15:29:09Z</time>
      </trkpt>
      <trkpt lat="45.7905" lon="-1.17145">
        <ele>12.4</ele>
        <time>2023-10-26T15:29:17Z</time>
      </trkpt>
      <trkpt lat="45.79043" lon="-1.1717">
        <ele>12.7</ele>
        <time>2023-10-26T15:29:24Z</time>
      </trkpt>
      <trkpt lat="45.79028" lon="-1.17194">
        <ele>13</ele>
        <time>2023-10-26T15:29:29Z</time>
      </trkpt>
      <trkpt lat="45.79016" lon="-1.17216">
        <ele>13.3</ele>
        <time>2023-10-26T15:29:34Z</time>
      </trkpt>
      <trkpt lat="45.79004" lon="-1.17239">
        <ele>13.7</ele>
        <time>2023-10-26T15:29:40Z</time>
      </trkpt>
      <trkpt lat="45.78994" lon="-1.17264">
        <ele>13.9</ele>
        <time>2023-10-26T15:29:46Z</time>
      </trkpt>
      <trkpt lat="45.78986" lon="-1.1729">
        <ele>14.2</ele>
        <time>2023-10-26T15:29:53Z</time>
      </trkpt>
      <trkpt lat="45.78979" lon="-1.17317">
        <ele>14.4</ele>
        <time>2023-10-26T15:30:00Z</time>
      </trkpt>
      <trkpt lat="45.7897" lon="-1.1734">
        <ele>14.5</ele>
        <time>2023-10-26T15:30:06Z</time>
      </trkpt>
      <trkpt lat="45.78962" lon="-1.17366">
        <ele>14.7</ele>
        <time>2023-10-26T15:30:12Z</time>
      </trkpt>
      <trkpt lat="45.78953" lon="-1.17388">
        <ele>14.7</ele>
        <time>2023-10-26T15:30:18Z</time>
      </trkpt>
      <trkpt lat="45.78944" lon="-1.17412">
        <ele>14.8</ele>
        <time>2023-10-26T15:30:24Z</time>
      </trkpt>
      <trkpt lat="45.78937" lon="-1.17439">
        <ele>14.9</ele>
        <time>2023-10-26T15:30:31Z</time>
      </trkpt>
      <trkpt lat="45.78927" lon="-1.17464">
        <ele>15</ele>
        <time>2023-10-26T15:30:38Z</time>
      </trkpt>
      <trkpt lat="45.78917" lon="-1.1749">
        <ele>15</ele>
        <time>2023-10-26T15:30:44Z</time>
      </trkpt>
      <trkpt lat="45.78906" lon="-1.17514">
        <ele>15.2</ele>
        <time>2023-10-26T15:30:50Z</time>
      </trkpt>
      <trkpt lat="45.78895" lon="-1.1754">
        <ele>15.3</ele>
        <time>2023-10-26T15:30:57Z</time>
      </trkpt>
      <trkpt lat="45.78886" lon="-1.17566">
        <ele>15.4</ele>
        <time>2023-10-26T15:31:03Z</time>
      </trkpt>
      <trkpt lat="45.78879" lon="-1.1759">
        <ele>15.6</ele>
        <time>2023-10-26T15:31:08Z</time>
      </trkpt>
      <trkpt lat="45.78871" lon="-1.17613">
        <ele>15.7</ele>
        <time>2023-10-26T15:31:14Z</time>
      </trkpt>
      <trkpt lat="45.78863" lon="-1.17639">
        <ele>15.7</ele>
        <time>2023-10-26T15:31:21Z</time>
      </trkpt>
      <trkpt lat="45.78854" lon="-1.17663">
        <ele>15.8</ele>
        <time>2023-10-26T15:31:27Z</time>
      </trkpt>
      <trkpt lat="45.78845" lon="-1.17686">
        <ele>16</ele>
        <time>2023-10-26T15:31:32Z</time>
      </trkpt>
      <trkpt lat="45.78835" lon="-1.1771">
        <ele>16.2</ele>
        <time>2023-10-26T15:31:38Z</time>
      </trkpt>
      <trkpt lat="45.78825" lon="-1.17735">
        <ele>16.3</ele>
        <time>2023-10-26T15:31:45Z</time>
      </trkpt>
      <trkpt lat="45.78817" lon="-1.17761">
        <ele>16.3</ele>
        <time>2023-10-26T15:31:51Z</time>
      </trkpt>
      <trkpt lat="45.78809" lon="-1.17787">
        <ele>16.1</ele>
        <time>2023-10-26T15:31:58Z</time>
      </trkpt>
      <trkpt lat="45.78802" lon="-1.17815">
        <ele>15.8</ele>
        <time>2023-10-26T15:32:06Z</time>
      </trkpt>
      <trkpt lat="45.78793" lon="-1.17842">
        <ele>15.4</ele>
        <time>2023-10-26T15:32:12Z</time>
      </trkpt>
      <trkpt lat="45.78782" lon="-1.17868">
        <ele>14.9</ele>
        <time>2023-10-26T15:32:18Z</time>
      </trkpt>
      <trkpt lat="45.78775" lon="-1.17893">
        <ele>14.5</ele>
        <time>2023-10-26T15:32:24Z</time>
      </trkpt>
      <trkpt lat="45.78766" lon="-1.17918">
        <ele>14.1</ele>
        <time>2023-10-26T15:32:30Z</time>
      </trkpt>
      <trkpt lat="45.78756" lon="-1.17945">
        <ele>13.8</ele>
        <time>2023-10-26T15:32:37Z</time>
      </trkpt>
      <trkpt lat="45.78747" lon="-1.17967">
        <ele>13.5</ele>
        <time>2023-10-26T15:32:42Z</time>
      </trkpt>
      <trkpt lat="45.78739" lon="-1.17991">
        <ele>13.2</ele>
        <time>2023-10-26T15:32:47Z</time>
      </trkpt>
      <trkpt lat="45.78727" lon="-1.18013">
        <ele>13.1</ele>
        <time>2023-10-26T15:32:52Z</time>
      </trkpt>
      <trkpt lat="45.78716" lon="-1.18034">
        <ele>13.1</ele>
        <time>2023-10-26T15:32:58Z</time>
      </trkpt>
      <trkpt lat="45.78706" lon="-1.1806">
        <ele>13</ele>
        <time>2023-10-26T15:33:05Z</time>
      </trkpt>
      <trkpt lat="45.78698" lon="-1.18086">
        <ele>12.9</ele>
        <time>2023-10-26T15:33:13Z</time>
      </trkpt>
      <trkpt lat="45.78691" lon="-1.18114">
        <ele>12.7</ele>
        <time>2023-10-26T15:33:21Z</time>
      </trkpt>
      <trkpt lat="45.78684" lon="-1.18139">
        <ele>12.5</ele>
        <time>2023-10-26T15:33:26Z</time>
      </trkpt>
      <trkpt lat="45.78674" lon="-1.18162">
        <ele>12.4</ele>
        <time>2023-10-26T15:33:31Z</time>
      </trkpt>
      <trkpt lat="45.78665" lon="-1.18188">
        <ele>12.3</ele>
        <time>2023-10-26T15:33:37Z</time>
      </trkpt>
      <trkpt lat="45.78658" lon="-1.18215">
        <ele>12.3</ele>
        <time>2023-10-26T15:33:44Z</time>
      </trkpt>
      <trkpt lat="45.78652" lon="-1.1824">
        <ele>12.2</ele>
        <time>2023-10-26T15:33:50Z</time>
      </trkpt>
      <trkpt lat="45.78647" lon="-1.18267">
        <ele>12.2</ele>
        <time>2023-10-26T15:33:56Z</time>
      </trkpt>
      <trkpt lat="45.78643" lon="-1.18296">
        <ele>12.1</ele>
        <time>2023-10-26T15:34:03Z</time>
      </trkpt>
      <trkpt lat="45.78643" lon="-1.18324">
        <ele>12.1</ele>
        <time>2023-10-26T15:34:09Z</time>
      </trkpt>
      <trkpt lat="45.78644" lon="-1.18352">
        <ele>12.3</ele>
        <time>2023-10-26T15:34:15Z</time>
      </trkpt>
      <trkpt lat="45.78644" lon="-1.1838">
        <ele>12.5</ele>
        <time>2023-10-26T15:34:21Z</time>
      </trkpt>
      <trkpt lat="45.78648" lon="-1.18408">
        <ele>12.8</ele>
        <time>2023-10-26T15:34:27Z</time>
      </trkpt>
      <trkpt lat="45.78653" lon="-1.18435">
        <ele>12.8</ele>
        <time>2023-10-26T15:34:33Z</time>
      </trkpt>
      <trkpt lat="45.78662" lon="-1.18458">
        <ele>12.9</ele>
        <time>2023-10-26T15:34:39Z</time>
      </trkpt>
      <trkpt lat="45.78672" lon="-1.18479">
        <ele>13</ele>
        <time>2023-10-26T15:34:45Z</time>
      </trkpt>
      <trkpt lat="45.78683" lon="-1.18502">
        <ele>13.2</ele>
        <time>2023-10-26T15:34:51Z</time>
      </trkpt>
      <trkpt lat="45.78691" lon="-1.18526">
        <ele>13.4</ele>
        <time>2023-10-26T15:34:57Z</time>
      </trkpt>
      <trkpt lat="45.78702" lon="-1.1855">
        <ele>13.4</ele>
        <time>2023-10-26T15:35:03Z</time>
      </trkpt>
      <trkpt lat="45.78707" lon="-1.1858">
        <ele>13.3</ele>
        <time>2023-10-26T15:35:10Z</time>
      </trkpt>
      <trkpt lat="45.7871" lon="-1.18611">
        <ele>13.3</ele>
        <time>2023-10-26T15:35:18Z</time>
      </trkpt>
      <trkpt lat="45.78719" lon="-1.18638">
        <ele>13.2</ele>
        <time>2023-10-26T15:35:25Z</time>
      </trkpt>
      <trkpt lat="45.78729" lon="-1.18663">
        <ele>13</ele>
        <time>2023-10-26T15:35:32Z</time>
      </trkpt>
      <trkpt lat="45.78739" lon="-1.18687">
        <ele>12.8</ele>
        <time>2023-10-26T15:35:39Z</time>
      </trkpt>
      <trkpt lat="45.7875" lon="-1.18708">
        <ele>12.6</ele>
        <time>2023-10-26T15:35:45Z</time>
      </trkpt>
      <trkpt lat="45.78765" lon="-1.18727">
        <ele>12.5</ele>
        <time>2023-10-26T15:35:51Z</time>
      </trkpt>
      <trkpt lat="45.78777" lon="-1.18746">
        <ele>12.5</ele>
        <time>2023-10-26T15:35:57Z</time>
      </trkpt>
      <trkpt lat="45.78791" lon="-1.18767">
        <ele>12.5</ele>
        <time>2023-10-26T15:36:04Z</time>
      </trkpt>
      <trkpt lat="45.78806" lon="-1.18785">
        <ele>12.6</ele>
        <time>2023-10-26T15:36:12Z</time>
      </trkpt>
      <trkpt lat="45.78822" lon="-1.18802">
        <ele>12.6</ele>
        <time>2023-10-26T15:36:18Z</time>
      </trkpt>
      <trkpt lat="45.78837" lon="-1.18821">
        <ele>12.5</ele>
        <time>2023-10-26T15:36:25Z</time>
      </trkpt>
      <trkpt lat="45.7885" lon="-1.18843">
        <ele>12.4</ele>
        <time>2023-10-26T15:36:31Z</time>
      </trkpt>
      <trkpt lat="45.7886" lon="-1.18866">
        <ele>12.3</ele>
        <time>2023-10-26T15:36:36Z</time>
      </trkpt>
      <trkpt lat="45.7887" lon="-1.18892">
        <ele>12.1</ele>
        <time>2023-10-26T15:36:42Z</time>
      </trkpt>
      <trkpt lat="45.78878" lon="-1.18918">
        <ele>11.9</ele>
        <time>2023-10-26T15:36:48Z</time>
      </trkpt>
      <trkpt lat="45.7888" lon="-1.18949">
        <ele>10.7</ele>
        <time>2023-10-26T15:36:54Z</time>
      </trkpt>
      <trkpt lat="45.78881" lon="-1.18965">
        <ele>10.5</ele>
        <time>2023-10-26T15:36:57Z</time>
      </trkpt>
      <trkpt lat="45.78881" lon="-1.18992">
        <ele>10.2</ele>
        <time>2023-10-26T15:37:01Z</time>
      </trkpt>
      <trkpt lat="45.78882" lon="-1.1902">
        <ele>9.8</ele>
        <time>2023-10-26T15:37:05Z</time>
      </trkpt>
      <trkpt lat="45.78882" lon="-1.19046">
        <ele>9.6</ele>
        <time>2023-10-26T15:37:09Z</time>
      </trkpt>
      <trkpt lat="45.78881" lon="-1.19072">
        <ele>9.4</ele>
        <time>2023-10-26T15:37:13Z</time>
      </trkpt>
      <trkpt lat="45.78879" lon="-1.19098">
        <ele>9.2</ele>
        <time>2023-10-26T15:37:17Z</time>
      </trkpt>
      <trkpt lat="45.78878" lon="-1.19125">
        <ele>8.9</ele>
        <time>2023-10-26T15:37:21Z</time>
      </trkpt>
      <trkpt lat="45.78877" lon="-1.19151">
        <ele>8.8</ele>
        <time>2023-10-26T15:37:25Z</time>
      </trkpt>
      <trkpt lat="45.78876" lon="-1.19182">
        <ele>8.8</ele>
        <time>2023-10-26T15:37:30Z</time>
      </trkpt>
      <trkpt lat="45.78876" lon="-1.19206">
        <ele>8.8</ele>
        <time>2023-10-26T15:37:34Z</time>
      </trkpt>
      <trkpt lat="45.78875" lon="-1.19225">
        <ele>8.9</ele>
        <time>2023-10-26T15:37:37Z</time>
      </trkpt>
      <trkpt lat="45.78871" lon="-1.19255">
        <ele>9</ele>
        <time>2023-10-26T15:37:42Z</time>
      </trkpt>
      <trkpt lat="45.78868" lon="-1.19278">
        <ele>9.1</ele>
        <time>2023-10-26T15:37:46Z</time>
      </trkpt>
      <trkpt lat="45.78869" lon="-1.1929">
        <ele>9.4</ele>
        <time>2023-10-26T15:37:48Z</time>
      </trkpt>
      <trkpt lat="45.78872" lon="-1.19299">
        <ele>9.7</ele>
        <time>2023-10-26T15:37:50Z</time>
      </trkpt>
      <trkpt lat="45.78874" lon="-1.19308">
        <ele>9.8</ele>
        <time>2023-10-26T15:37:52Z</time>
      </trkpt>
      <trkpt lat="45.78876" lon="-1.1932">
        <ele>9.9</ele>
        <time>2023-10-26T15:37:54Z</time>
      </trkpt>
      <trkpt lat="45.78876" lon="-1.19331">
        <ele>9.9</ele>
        <time>2023-10-26T15:37:56Z</time>
      </trkpt>
      <trkpt lat="45.78878" lon="-1.19354">
        <ele>9.9</ele>
        <time>2023-10-26T15:38:00Z</time>
      </trkpt>
      <trkpt lat="45.78883" lon="-1.19381">
        <ele>9.8</ele>
        <time>2023-10-26T15:38:05Z</time>
      </trkpt>
      <trkpt lat="45.78886" lon="-1.19409">
        <ele>9.8</ele>
        <time>2023-10-26T15:38:10Z</time>
      </trkpt>
      <trkpt lat="45.78888" lon="-1.19414">
        <ele>9.9</ele>
        <time>2023-10-26T15:38:11Z</time>
      </trkpt>
      <trkpt lat="45.78889" lon="-1.19424">
        <ele>9.9</ele>
        <time>2023-10-26T15:38:13Z</time>
      </trkpt>
      <trkpt lat="45.7889" lon="-1.19452">
        <ele>9.9</ele>
        <time>2023-10-26T15:38:18Z</time>
      </trkpt>
      <trkpt lat="45.78889" lon="-1.19484">
        <ele>9.8</ele>
        <time>2023-10-26T15:38:23Z</time>
      </trkpt>
      <trkpt lat="45.7889" lon="-1.19514">
        <ele>9.6</ele>
        <time>2023-10-26T15:38:28Z</time>
      </trkpt>
      <trkpt lat="45.78886" lon="-1.19542">
        <ele>9.3</ele>
        <time>2023-10-26T15:38:32Z</time>
      </trkpt>
      <trkpt lat="45.78883" lon="-1.19554">
        <ele>9.1</ele>
        <time>2023-10-26T15:38:34Z</time>
      </trkpt>
      <trkpt lat="45.78883" lon="-1.19584">
        <ele>8.8</ele>
        <time>2023-10-26T15:38:39Z</time>
      </trkpt>
      <trkpt lat="45.78884" lon="-1.1961">
        <ele>8.8</ele>
        <time>2023-10-26T15:38:43Z</time>
      </trkpt>
      <trkpt lat="45.78888" lon="-1.19638">
        <ele>8.8</ele>
        <time>2023-10-26T15:38:48Z</time>
      </trkpt>
      <trkpt lat="45.78895" lon="-1.19666">
        <ele>8.6</ele>
        <time>2023-10-26T15:38:53Z</time>
      </trkpt>
      <trkpt lat="45.78902" lon="-1.19691">
        <ele>8.3</ele>
        <time>2023-10-26T15:38:57Z</time>
      </trkpt>
      <trkpt lat="45.78909" lon="-1.19717">
        <ele>8.1</ele>
        <time>2023-10-26T15:39:01Z</time>
      </trkpt>
      <trkpt lat="45.78916" lon="-1.19747">
        <ele>8.1</ele>
        <time>2023-10-26T15:39:06Z</time>
      </trkpt>
      <trkpt lat="45.78925" lon="-1.19778">
        <ele>8</ele>
        <time>2023-10-26T15:39:11Z</time>
      </trkpt>
      <trkpt lat="45.78934" lon="-1.198">
        <ele>7.8</ele>
        <time>2023-10-26T15:39:15Z</time>
      </trkpt>
      <trkpt lat="45.78944" lon="-1.19828">
        <ele>7.6</ele>
        <time>2023-10-26T15:39:20Z</time>
      </trkpt>
      <trkpt lat="45.78952" lon="-1.19858">
        <ele>7.5</ele>
        <time>2023-10-26T15:39:25Z</time>
      </trkpt>
      <trkpt lat="45.78961" lon="-1.19881">
        <ele>7.4</ele>
        <time>2023-10-26T15:39:29Z</time>
      </trkpt>
      <trkpt lat="45.78972" lon="-1.19909">
        <ele>7.4</ele>
        <time>2023-10-26T15:39:34Z</time>
      </trkpt>
      <trkpt lat="45.78978" lon="-1.19937">
        <ele>7.4</ele>
        <time>2023-10-26T15:39:39Z</time>
      </trkpt>
      <trkpt lat="45.78985" lon="-1.19966">
        <ele>7.4</ele>
        <time>2023-10-26T15:39:44Z</time>
      </trkpt>
      <trkpt lat="45.78993" lon="-1.19991">
        <ele>7.3</ele>
        <time>2023-10-26T15:39:48Z</time>
      </trkpt>
      <trkpt lat="45.79002" lon="-1.20014">
        <ele>7.3</ele>
        <time>2023-10-26T15:39:52Z</time>
      </trkpt>
      <trkpt lat="45.79012" lon="-1.20043">
        <ele>7.4</ele>
        <time>2023-10-26T15:39:57Z</time>
      </trkpt>
      <trkpt lat="45.79015" lon="-1.20062">
        <ele>7.4</ele>
        <time>2023-10-26T15:40:00Z</time>
      </trkpt>
      <trkpt lat="45.79021" lon="-1.20091">
        <ele>7.5</ele>
        <time>2023-10-26T15:40:05Z</time>
      </trkpt>
      <trkpt lat="45.79027" lon="-1.2012">
        <ele>7.5</ele>
        <time>2023-10-26T15:40:10Z</time>
      </trkpt>
      <trkpt lat="45.79033" lon="-1.20149">
        <ele>7.6</ele>
        <time>2023-10-26T15:40:15Z</time>
      </trkpt>
      <trkpt lat="45.79036" lon="-1.20165">
        <ele>7.7</ele>
        <time>2023-10-26T15:40:18Z</time>
      </trkpt>
      <trkpt lat="45.7904" lon="-1.20196">
        <ele>7.8</ele>
        <time>2023-10-26T15:40:23Z</time>
      </trkpt>
      <trkpt lat="45.79043" lon="-1.20223">
        <ele>7.9</ele>
        <time>2023-10-26T15:40:27Z</time>
      </trkpt>
      <trkpt lat="45.79044" lon="-1.20254">
        <ele>7.9</ele>
        <time>2023-10-26T15:40:32Z</time>
      </trkpt>
      <trkpt lat="45.79045" lon="-1.20259">
        <ele>7.9</ele>
        <time>2023-10-26T15:40:33Z</time>
      </trkpt>
      <trkpt lat="45.79049" lon="-1.20287">
        <ele>8</ele>
        <time>2023-10-26T15:40:38Z</time>
      </trkpt>
      <trkpt lat="45.79054" lon="-1.20312">
        <ele>8</ele>
        <time>2023-10-26T15:40:42Z</time>
      </trkpt>
      <trkpt lat="45.79058" lon="-1.20339">
        <ele>8.1</ele>
        <time>2023-10-26T15:40:46Z</time>
      </trkpt>
      <trkpt lat="45.79062" lon="-1.20369">
        <ele>8.1</ele>
        <time>2023-10-26T15:40:51Z</time>
      </trkpt>
      <trkpt lat="45.79065" lon="-1.20394">
        <ele>8.2</ele>
        <time>2023-10-26T15:40:55Z</time>
      </trkpt>
      <trkpt lat="45.79068" lon="-1.20426">
        <ele>8.3</ele>
        <time>2023-10-26T15:41:00Z</time>
      </trkpt>
      <trkpt lat="45.79075" lon="-1.20457">
        <ele>8.3</ele>
        <time>2023-10-26T15:41:05Z</time>
      </trkpt>
      <trkpt lat="45.7908" lon="-1.20487">
        <ele>8.4</ele>
        <time>2023-10-26T15:41:10Z</time>
      </trkpt>
      <trkpt lat="45.79085" lon="-1.20517">
        <ele>8.2</ele>
        <time>2023-10-26T15:41:15Z</time>
      </trkpt>
      <trkpt lat="45.79087" lon="-1.20528">
        <ele>8.1</ele>
        <time>2023-10-26T15:41:16Z</time>
      </trkpt>
      <trkpt lat="45.7909" lon="-1.20558">
        <ele>8</ele>
        <time>2023-10-26T15:41:22Z</time>
      </trkpt>
      <trkpt lat="45.79093" lon="-1.20576">
        <ele>8</ele>
        <time>2023-10-26T15:41:25Z</time>
      </trkpt>
      <trkpt lat="45.79099" lon="-1.20605">
        <ele>8.1</ele>
        <time>2023-10-26T15:41:30Z</time>
      </trkpt>
      <trkpt lat="45.79106" lon="-1.20634">
        <ele>8.2</ele>
        <time>2023-10-26T15:41:35Z</time>
      </trkpt>
      <trkpt lat="45.79112" lon="-1.20664">
        <ele>8.4</ele>
        <time>2023-10-26T15:41:40Z</time>
      </trkpt>
      <trkpt lat="45.79113" lon="-1.20691">
        <ele>8.6</ele>
        <time>2023-10-26T15:41:44Z</time>
      </trkpt>
      <trkpt lat="45.79112" lon="-1.20711">
        <ele>8.5</ele>
        <time>2023-10-26T15:41:47Z</time>
      </trkpt>
      <trkpt lat="45.79111" lon="-1.20724">
        <ele>8.5</ele>
        <time>2023-10-26T15:41:49Z</time>
      </trkpt>
      <trkpt lat="45.79113" lon="-1.20754">
        <ele>8.3</ele>
        <time>2023-10-26T15:41:54Z</time>
      </trkpt>
      <trkpt lat="45.79116" lon="-1.20784">
        <ele>8.2</ele>
        <time>2023-10-26T15:41:59Z</time>
      </trkpt>
      <trkpt lat="45.79119" lon="-1.20813">
        <ele>8.1</ele>
        <time>2023-10-26T15:42:04Z</time>
      </trkpt>
      <trkpt lat="45.79122" lon="-1.20845">
        <ele>8</ele>
        <time>2023-10-26T15:42:09Z</time>
      </trkpt>
      <trkpt lat="45.79123" lon="-1.20876">
        <ele>8</ele>
        <time>2023-10-26T15:42:14Z</time>
      </trkpt>
      <trkpt lat="45.7912" lon="-1.20902">
        <ele>7.9</ele>
        <time>2023-10-26T15:42:18Z</time>
      </trkpt>
      <trkpt lat="45.79117" lon="-1.20929">
        <ele>7.9</ele>
        <time>2023-10-26T15:42:22Z</time>
      </trkpt>
      <trkpt lat="45.79116" lon="-1.20955">
        <ele>7.9</ele>
        <time>2023-10-26T15:42:26Z</time>
      </trkpt>
      <trkpt lat="45.79116" lon="-1.20982">
        <ele>8</ele>
        <time>2023-10-26T15:42:31Z</time>
      </trkpt>
      <trkpt lat="45.79115" lon="-1.20992">
        <ele>8</ele>
        <time>2023-10-26T15:42:33Z</time>
      </trkpt>
      <trkpt lat="45.79111" lon="-1.21021">
        <ele>8</ele>
        <time>2023-10-26T15:42:38Z</time>
      </trkpt>
      <trkpt lat="45.79106" lon="-1.21054">
        <ele>7.9</ele>
        <time>2023-10-26T15:42:43Z</time>
      </trkpt>
      <trkpt lat="45.79101" lon="-1.2108">
        <ele>7.9</ele>
        <time>2023-10-26T15:42:47Z</time>
      </trkpt>
      <trkpt lat="45.79095" lon="-1.21107">
        <ele>7.8</ele>
        <time>2023-10-26T15:42:51Z</time>
      </trkpt>
      <trkpt lat="45.79092" lon="-1.21121">
        <ele>7.8</ele>
        <time>2023-10-26T15:42:53Z</time>
      </trkpt>
      <trkpt lat="45.79086" lon="-1.21147">
        <ele>7.7</ele>
        <time>2023-10-26T15:42:57Z</time>
      </trkpt>
      <trkpt lat="45.79079" lon="-1.21172">
        <ele>7.6</ele>
        <time>2023-10-26T15:43:01Z</time>
      </trkpt>
      <trkpt lat="45.79069" lon="-1.212">
        <ele>7.6</ele>
        <time>2023-10-26T15:43:06Z</time>
      </trkpt>
      <trkpt lat="45.79062" lon="-1.2123">
        <ele>7.5</ele>
        <time>2023-10-26T15:43:11Z</time>
      </trkpt>
      <trkpt lat="45.7906" lon="-1.21243">
        <ele>7.5</ele>
        <time>2023-10-26T15:43:12Z</time>
      </trkpt>
      <trkpt lat="45.79058" lon="-1.21273">
        <ele>7.4</ele>
        <time>2023-10-26T15:43:18Z</time>
      </trkpt>
      <trkpt lat="45.79052" lon="-1.21298">
        <ele>7.3</ele>
        <time>2023-10-26T15:43:22Z</time>
      </trkpt>
      <trkpt lat="45.79047" lon="-1.21324">
        <ele>7.1</ele>
        <time>2023-10-26T15:43:26Z</time>
      </trkpt>
      <trkpt lat="45.79039" lon="-1.21351">
        <ele>7</ele>
        <time>2023-10-26T15:43:31Z</time>
      </trkpt>
      <trkpt lat="45.7903" lon="-1.21378">
        <ele>6.9</ele>
        <time>2023-10-26T15:43:36Z</time>
      </trkpt>
      <trkpt lat="45.7902" lon="-1.21405">
        <ele>6.9</ele>
        <time>2023-10-26T15:43:41Z</time>
      </trkpt>
      <trkpt lat="45.7901" lon="-1.21433">
        <ele>7</ele>
        <time>2023-10-26T15:43:46Z</time>
      </trkpt>
      <trkpt lat="45.79001" lon="-1.2146">
        <ele>7.2</ele>
        <time>2023-10-26T15:43:51Z</time>
      </trkpt>
      <trkpt lat="45.79" lon="-1.21473">
        <ele>7.3</ele>
        <time>2023-10-26T15:43:53Z</time>
      </trkpt>
      <trkpt lat="45.79001" lon="-1.215">
        <ele>7.4</ele>
        <time>2023-10-26T15:43:57Z</time>
      </trkpt>
      <trkpt lat="45.79001" lon="-1.21507">
        <ele>7.4</ele>
        <time>2023-10-26T15:43:58Z</time>
      </trkpt>
      <trkpt lat="45.78996" lon="-1.21525">
        <ele>7.5</ele>
        <time>2023-10-26T15:44:00Z</time>
      </trkpt>
      <trkpt lat="45.78993" lon="-1.2153">
        <ele>7.6</ele>
        <time>2023-10-26T15:44:02Z</time>
      </trkpt>
      <trkpt lat="45.78977" lon="-1.21553">
        <ele>7.7</ele>
        <time>2023-10-26T15:44:07Z</time>
      </trkpt>
      <trkpt lat="45.78963" lon="-1.21576">
        <ele>7.7</ele>
        <time>2023-10-26T15:44:12Z</time>
      </trkpt>
      <trkpt lat="45.78951" lon="-1.21601">
        <ele>7.7</ele>
        <time>2023-10-26T15:44:17Z</time>
      </trkpt>
      <trkpt lat="45.78938" lon="-1.21625">
        <ele>7.7</ele>
        <time>2023-10-26T15:44:22Z</time>
      </trkpt>
      <trkpt lat="45.78924" lon="-1.2165">
        <ele>7.7</ele>
        <time>2023-10-26T15:44:27Z</time>
      </trkpt>
      <trkpt lat="45.78911" lon="-1.21672">
        <ele>7.8</ele>
        <time>2023-10-26T15:44:32Z</time>
      </trkpt>
      <trkpt lat="45.78897" lon="-1.21696">
        <ele>7.9</ele>
        <time>2023-10-26T15:44:37Z</time>
      </trkpt>
      <trkpt lat="45.78882" lon="-1.2172">
        <ele>8</ele>
        <time>2023-10-26T15:44:42Z</time>
      </trkpt>
      <trkpt lat="45.78871" lon="-1.21738">
        <ele>8.1</ele>
        <time>2023-10-26T15:44:46Z</time>
      </trkpt>
      <trkpt lat="45.78861" lon="-1.21756">
        <ele>8.2</ele>
        <time>2023-10-26T15:44:50Z</time>
      </trkpt>
      <trkpt lat="45.78856" lon="-1.21765">
        <ele>8.2</ele>
        <time>2023-10-26T15:44:52Z</time>
      </trkpt>
      <trkpt lat="45.78843" lon="-1.2179">
        <ele>8.2</ele>
        <time>2023-10-26T15:44:57Z</time>
      </trkpt>
      <trkpt lat="45.7883" lon="-1.21812">
        <ele>8.2</ele>
        <time>2023-10-26T15:45:02Z</time>
      </trkpt>
      <trkpt lat="45.78817" lon="-1.21834">
        <ele>8.1</ele>
        <time>2023-10-26T15:45:07Z</time>
      </trkpt>
      <trkpt lat="45.78803" lon="-1.21856">
        <ele>8</ele>
        <time>2023-10-26T15:45:12Z</time>
      </trkpt>
      <trkpt lat="45.7879" lon="-1.21879">
        <ele>8</ele>
        <time>2023-10-26T15:45:17Z</time>
      </trkpt>
      <trkpt lat="45.78778" lon="-1.21905">
        <ele>7.9</ele>
        <time>2023-10-26T15:45:22Z</time>
      </trkpt>
      <trkpt lat="45.78766" lon="-1.21929">
        <ele>7.8</ele>
        <time>2023-10-26T15:45:27Z</time>
      </trkpt>
      <trkpt lat="45.78763" lon="-1.21934">
        <ele>7.8</ele>
        <time>2023-10-26T15:45:28Z</time>
      </trkpt>
      <trkpt lat="45.78756" lon="-1.21948">
        <ele>7.8</ele>
        <time>2023-10-26T15:45:31Z</time>
      </trkpt>
      <trkpt lat="45.78743" lon="-1.21973">
        <ele>7.9</ele>
        <time>2023-10-26T15:45:36Z</time>
      </trkpt>
      <trkpt lat="45.78729" lon="-1.21997">
        <ele>8.2</ele>
        <time>2023-10-26T15:45:41Z</time>
      </trkpt>
      <trkpt lat="45.78715" lon="-1.22017">
        <ele>8.3</ele>
        <time>2023-10-26T15:45:46Z</time>
      </trkpt>
      <trkpt lat="45.78702" lon="-1.22042">
        <ele>8.6</ele>
        <time>2023-10-26T15:45:51Z</time>
      </trkpt>
      <trkpt lat="45.78689" lon="-1.22066">
        <ele>8.9</ele>
        <time>2023-10-26T15:45:56Z</time>
      </trkpt>
      <trkpt lat="45.78687" lon="-1.22071">
        <ele>9</ele>
        <time>2023-10-26T15:45:57Z</time>
      </trkpt>
      <trkpt lat="45.78677" lon="-1.22094">
        <ele>9.3</ele>
        <time>2023-10-26T15:46:02Z</time>
      </trkpt>
      <trkpt lat="45.78667" lon="-1.22118">
        <ele>9.5</ele>
        <time>2023-10-26T15:46:11Z</time>
      </trkpt>
      <trkpt lat="45.78655" lon="-1.22142">
        <ele>9.6</ele>
        <time>2023-10-26T15:46:22Z</time>
      </trkpt>
      <trkpt lat="45.78646" lon="-1.22164">
        <ele>9.6</ele>
        <time>2023-10-26T15:46:32Z</time>
      </trkpt>
      <trkpt lat="45.78633" lon="-1.22182">
        <ele>9.6</ele>
        <time>2023-10-26T15:46:39Z</time>
      </trkpt>
      <trkpt lat="45.7862" lon="-1.22202">
        <ele>9.7</ele>
        <time>2023-10-26T15:46:47Z</time>
      </trkpt>
      <trkpt lat="45.78606" lon="-1.22224">
        <ele>9.8</ele>
        <time>2023-10-26T15:46:55Z</time>
      </trkpt>
      <trkpt lat="45.78602" lon="-1.22231">
        <ele>9.9</ele>
        <time>2023-10-26T15:46:57Z</time>
      </trkpt>
      <trkpt lat="45.78589" lon="-1.22253">
        <ele>10</ele>
        <time>2023-10-26T15:47:02Z</time>
      </trkpt>
      <trkpt lat="45.78577" lon="-1.22277">
        <ele>10.3</ele>
        <time>2023-10-26T15:47:07Z</time>
      </trkpt>
      <trkpt lat="45.78566" lon="-1.22298">
        <ele>10.5</ele>
        <time>2023-10-26T15:47:11Z</time>
      </trkpt>
      <trkpt lat="45.78555" lon="-1.22319">
        <ele>10.8</ele>
        <time>2023-10-26T15:47:15Z</time>
      </trkpt>
      <trkpt lat="45.78543" lon="-1.2234">
        <ele>11.1</ele>
        <time>2023-10-26T15:47:19Z</time>
      </trkpt>
      <trkpt lat="45.78533" lon="-1.22355">
        <ele>11.3</ele>
        <time>2023-10-26T15:47:22Z</time>
      </trkpt>
      <trkpt lat="45.78521" lon="-1.22375">
        <ele>11.6</ele>
        <time>2023-10-26T15:47:26Z</time>
      </trkpt>
      <trkpt lat="45.78512" lon="-1.22387">
        <ele>11.8</ele>
        <time>2023-10-26T15:47:29Z</time>
      </trkpt>
      <trkpt lat="45.78499" lon="-1.22409">
        <ele>12.1</ele>
        <time>2023-10-26T15:47:34Z</time>
      </trkpt>
      <trkpt lat="45.78485" lon="-1.22433">
        <ele>12.2</ele>
        <time>2023-10-26T15:47:39Z</time>
      </trkpt>
      <trkpt lat="45.78473" lon="-1.22456">
        <ele>12.3</ele>
        <time>2023-10-26T15:47:44Z</time>
      </trkpt>
      <trkpt lat="45.78459" lon="-1.22478">
        <ele>12.4</ele>
        <time>2023-10-26T15:47:49Z</time>
      </trkpt>
      <trkpt lat="45.78444" lon="-1.22501">
        <ele>12.3</ele>
        <time>2023-10-26T15:47:54Z</time>
      </trkpt>
      <trkpt lat="45.78427" lon="-1.22519">
        <ele>12.2</ele>
        <time>2023-10-26T15:47:59Z</time>
      </trkpt>
      <trkpt lat="45.78412" lon="-1.2254">
        <ele>12</ele>
        <time>2023-10-26T15:48:04Z</time>
      </trkpt>
      <trkpt lat="45.78395" lon="-1.2256">
        <ele>11.7</ele>
        <time>2023-10-26T15:48:09Z</time>
      </trkpt>
      <trkpt lat="45.7838" lon="-1.22581">
        <ele>11.5</ele>
        <time>2023-10-26T15:48:14Z</time>
      </trkpt>
      <trkpt lat="45.78363" lon="-1.22602">
        <ele>11.1</ele>
        <time>2023-10-26T15:48:19Z</time>
      </trkpt>
      <trkpt lat="45.78345" lon="-1.2262">
        <ele>10.9</ele>
        <time>2023-10-26T15:48:24Z</time>
      </trkpt>
      <trkpt lat="45.78328" lon="-1.22639">
        <ele>10.6</ele>
        <time>2023-10-26T15:48:29Z</time>
      </trkpt>
      <trkpt lat="45.78311" lon="-1.22657">
        <ele>10.3</ele>
        <time>2023-10-26T15:48:34Z</time>
      </trkpt>
      <trkpt lat="45.78293" lon="-1.22674">
        <ele>10.1</ele>
        <time>2023-10-26T15:48:39Z</time>
      </trkpt>
      <trkpt lat="45.78274" lon="-1.22689">
        <ele>10</ele>
        <time>2023-10-26T15:48:44Z</time>
      </trkpt>
      <trkpt lat="45.78254" lon="-1.22703">
        <ele>9.9</ele>
        <time>2023-10-26T15:48:49Z</time>
      </trkpt>
      <trkpt lat="45.78236" lon="-1.22713">
        <ele>9.7</ele>
        <time>2023-10-26T15:48:54Z</time>
      </trkpt>
      <trkpt lat="45.7823" lon="-1.22719">
        <ele>9.6</ele>
        <time>2023-10-26T15:48:56Z</time>
      </trkpt>
      <trkpt lat="45.78211" lon="-1.22734">
        <ele>9.3</ele>
        <time>2023-10-26T15:49:01Z</time>
      </trkpt>
      <trkpt lat="45.78192" lon="-1.22746">
        <ele>9.1</ele>
        <time>2023-10-26T15:49:06Z</time>
      </trkpt>
      <trkpt lat="45.78172" lon="-1.22758">
        <ele>8.8</ele>
        <time>2023-10-26T15:49:11Z</time>
      </trkpt>
      <trkpt lat="45.78151" lon="-1.22767">
        <ele>8.6</ele>
        <time>2023-10-26T15:49:16Z</time>
      </trkpt>
      <trkpt lat="45.78132" lon="-1.22777">
        <ele>8.5</ele>
        <time>2023-10-26T15:49:21Z</time>
      </trkpt>
      <trkpt lat="45.78112" lon="-1.22784">
        <ele>8.4</ele>
        <time>2023-10-26T15:49:26Z</time>
      </trkpt>
      <trkpt lat="45.78091" lon="-1.2279">
        <ele>8.3</ele>
        <time>2023-10-26T15:49:31Z</time>
      </trkpt>
      <trkpt lat="45.78083" lon="-1.22793">
        <ele>8.3</ele>
        <time>2023-10-26T15:49:33Z</time>
      </trkpt>
      <trkpt lat="45.78062" lon="-1.22798">
        <ele>8.2</ele>
        <time>2023-10-26T15:49:38Z</time>
      </trkpt>
      <trkpt lat="45.78042" lon="-1.22802">
        <ele>8.1</ele>
        <time>2023-10-26T15:49:43Z</time>
      </trkpt>
      <trkpt lat="45.78031" lon="-1.22805">
        <ele>8</ele>
        <time>2023-10-26T15:49:46Z</time>
      </trkpt>
      <trkpt lat="45.78009" lon="-1.22809">
        <ele>7.9</ele>
        <time>2023-10-26T15:49:51Z</time>
      </trkpt>
      <trkpt lat="45.77988" lon="-1.22811">
        <ele>7.9</ele>
        <time>2023-10-26T15:49:56Z</time>
      </trkpt>
      <trkpt lat="45.77976" lon="-1.22812">
        <ele>7.8</ele>
        <time>2023-10-26T15:50:03Z</time>
      </trkpt>
      <trkpt lat="45.77996" lon="-1.22808">
        <ele>7.9</ele>
        <time>2023-10-26T15:50:09Z</time>
      </trkpt>
      <trkpt lat="45.78015" lon="-1.22804">
        <ele>7.9</ele>
        <time>2023-10-26T15:50:13Z</time>
      </trkpt>
      <trkpt lat="45.78036" lon="-1.22801">
        <ele>8.1</ele>
        <time>2023-10-26T15:50:17Z</time>
      </trkpt>
      <trkpt lat="45.78055" lon="-1.22798">
        <ele>8.2</ele>
        <time>2023-10-26T15:50:21Z</time>
      </trkpt>
      <trkpt lat="45.78076" lon="-1.22796">
        <ele>8.3</ele>
        <time>2023-10-26T15:50:26Z</time>
      </trkpt>
      <trkpt lat="45.78097" lon="-1.22794">
        <ele>8.3</ele>
        <time>2023-10-26T15:50:31Z</time>
      </trkpt>
      <trkpt lat="45.7811" lon="-1.22791">
        <ele>8.4</ele>
        <time>2023-10-26T15:50:34Z</time>
      </trkpt>
      <trkpt lat="45.78131" lon="-1.22784">
        <ele>8.5</ele>
        <time>2023-10-26T15:50:39Z</time>
      </trkpt>
      <trkpt lat="45.78151" lon="-1.22776">
        <ele>8.6</ele>
        <time>2023-10-26T15:50:44Z</time>
      </trkpt>
      <trkpt lat="45.78169" lon="-1.22769">
        <ele>8.7</ele>
        <time>2023-10-26T15:50:48Z</time>
      </trkpt>
      <trkpt lat="45.78187" lon="-1.22762">
        <ele>9</ele>
        <time>2023-10-26T15:50:52Z</time>
      </trkpt>
      <trkpt lat="45.78205" lon="-1.22753">
        <ele>9.2</ele>
        <time>2023-10-26T15:50:56Z</time>
      </trkpt>
      <trkpt lat="45.78223" lon="-1.22745">
        <ele>9.4</ele>
        <time>2023-10-26T15:51:00Z</time>
      </trkpt>
      <trkpt lat="45.78243" lon="-1.22737">
        <ele>9.7</ele>
        <time>2023-10-26T15:51:05Z</time>
      </trkpt>
      <trkpt lat="45.78263" lon="-1.22726">
        <ele>10</ele>
        <time>2023-10-26T15:51:10Z</time>
      </trkpt>
      <trkpt lat="45.78283" lon="-1.22712">
        <ele>10</ele>
        <time>2023-10-26T15:51:15Z</time>
      </trkpt>
      <trkpt lat="45.78301" lon="-1.22698">
        <ele>10.1</ele>
        <time>2023-10-26T15:51:19Z</time>
      </trkpt>
      <trkpt lat="45.78318" lon="-1.22684">
        <ele>10.3</ele>
        <time>2023-10-26T15:51:23Z</time>
      </trkpt>
      <trkpt lat="45.7833" lon="-1.22674">
        <ele>10.4</ele>
        <time>2023-10-26T15:51:26Z</time>
      </trkpt>
      <trkpt lat="45.78348" lon="-1.22662">
        <ele>10.7</ele>
        <time>2023-10-26T15:51:30Z</time>
      </trkpt>
      <trkpt lat="45.78351" lon="-1.22658">
        <ele>10.7</ele>
        <time>2023-10-26T15:51:31Z</time>
      </trkpt>
      <trkpt lat="45.78368" lon="-1.22643">
        <ele>11</ele>
        <time>2023-10-26T15:51:36Z</time>
      </trkpt>
      <trkpt lat="45.78386" lon="-1.22624">
        <ele>11.3</ele>
        <time>2023-10-26T15:51:41Z</time>
      </trkpt>
      <trkpt lat="45.78404" lon="-1.22607">
        <ele>11.6</ele>
        <time>2023-10-26T15:51:46Z</time>
      </trkpt>
      <trkpt lat="45.7842" lon="-1.22587">
        <ele>11.8</ele>
        <time>2023-10-26T15:51:51Z</time>
      </trkpt>
      <trkpt lat="45.78435" lon="-1.22566">
        <ele>12</ele>
        <time>2023-10-26T15:51:56Z</time>
      </trkpt>
      <trkpt lat="45.7845" lon="-1.22546">
        <ele>12.2</ele>
        <time>2023-10-26T15:52:01Z</time>
      </trkpt>
      <trkpt lat="45.78463" lon="-1.22522">
        <ele>12.3</ele>
        <time>2023-10-26T15:52:06Z</time>
      </trkpt>
      <trkpt lat="45.78477" lon="-1.22501">
        <ele>12.4</ele>
        <time>2023-10-26T15:52:11Z</time>
      </trkpt>
      <trkpt lat="45.78491" lon="-1.22481">
        <ele>12.3</ele>
        <time>2023-10-26T15:52:16Z</time>
      </trkpt>
      <trkpt lat="45.78505" lon="-1.22457">
        <ele>12.2</ele>
        <time>2023-10-26T15:52:21Z</time>
      </trkpt>
      <trkpt lat="45.78514" lon="-1.22445">
        <ele>12.1</ele>
        <time>2023-10-26T15:52:24Z</time>
      </trkpt>
      <trkpt lat="45.78529" lon="-1.22422">
        <ele>11.9</ele>
        <time>2023-10-26T15:52:29Z</time>
      </trkpt>
      <trkpt lat="45.78542" lon="-1.22399">
        <ele>11.6</ele>
        <time>2023-10-26T15:52:34Z</time>
      </trkpt>
      <trkpt lat="45.78548" lon="-1.2239">
        <ele>11.5</ele>
        <time>2023-10-26T15:52:36Z</time>
      </trkpt>
      <trkpt lat="45.7856" lon="-1.22365">
        <ele>11.1</ele>
        <time>2023-10-26T15:52:40Z</time>
      </trkpt>
      <trkpt lat="45.78571" lon="-1.22342">
        <ele>10.8</ele>
        <time>2023-10-26T15:52:44Z</time>
      </trkpt>
      <trkpt lat="45.78584" lon="-1.22317">
        <ele>10.5</ele>
        <time>2023-10-26T15:52:49Z</time>
      </trkpt>
      <trkpt lat="45.78595" lon="-1.22296">
        <ele>10.3</ele>
        <time>2023-10-26T15:52:53Z</time>
      </trkpt>
      <trkpt lat="45.78606" lon="-1.22274">
        <ele>10</ele>
        <time>2023-10-26T15:52:57Z</time>
      </trkpt>
      <trkpt lat="45.78619" lon="-1.2225">
        <ele>9.9</ele>
        <time>2023-10-26T15:53:02Z</time>
      </trkpt>
      <trkpt lat="45.78631" lon="-1.22226">
        <ele>9.7</ele>
        <time>2023-10-26T15:53:07Z</time>
      </trkpt>
      <trkpt lat="45.78639" lon="-1.22213">
        <ele>9.6</ele>
        <time>2023-10-26T15:53:10Z</time>
      </trkpt>
      <trkpt lat="45.78651" lon="-1.22187">
        <ele>9.6</ele>
        <time>2023-10-26T15:53:15Z</time>
      </trkpt>
      <trkpt lat="45.78662" lon="-1.22167">
        <ele>9.6</ele>
        <time>2023-10-26T15:53:19Z</time>
      </trkpt>
      <trkpt lat="45.78674" lon="-1.22147">
        <ele>9.5</ele>
        <time>2023-10-26T15:53:23Z</time>
      </trkpt>
      <trkpt lat="45.78686" lon="-1.22125">
        <ele>9.4</ele>
        <time>2023-10-26T15:53:27Z</time>
      </trkpt>
      <trkpt lat="45.78698" lon="-1.22101">
        <ele>9.1</ele>
        <time>2023-10-26T15:53:32Z</time>
      </trkpt>
      <trkpt lat="45.7871" lon="-1.2208">
        <ele>8.8</ele>
        <time>2023-10-26T15:53:36Z</time>
      </trkpt>
      <trkpt lat="45.78722" lon="-1.22059">
        <ele>8.5</ele>
        <time>2023-10-26T15:53:40Z</time>
      </trkpt>
      <trkpt lat="45.78736" lon="-1.22034">
        <ele>8.3</ele>
        <time>2023-10-26T15:53:45Z</time>
      </trkpt>
      <trkpt lat="45.78748" lon="-1.2201">
        <ele>8.1</ele>
        <time>2023-10-26T15:53:49Z</time>
      </trkpt>
      <trkpt lat="45.78759" lon="-1.21984">
        <ele>7.9</ele>
        <time>2023-10-26T15:53:54Z</time>
      </trkpt>
      <trkpt lat="45.78763" lon="-1.21979">
        <ele>7.9</ele>
        <time>2023-10-26T15:53:55Z</time>
      </trkpt>
      <trkpt lat="45.78775" lon="-1.21958">
        <ele>7.8</ele>
        <time>2023-10-26T15:53:59Z</time>
      </trkpt>
      <trkpt lat="45.78783" lon="-1.21943">
        <ele>7.8</ele>
        <time>2023-10-26T15:54:02Z</time>
      </trkpt>
      <trkpt lat="45.78798" lon="-1.2192">
        <ele>7.9</ele>
        <time>2023-10-26T15:54:07Z</time>
      </trkpt>
      <trkpt lat="45.78812" lon="-1.21895">
        <ele>8</ele>
        <time>2023-10-26T15:54:12Z</time>
      </trkpt>
      <trkpt lat="45.78824" lon="-1.21874">
        <ele>8.1</ele>
        <time>2023-10-26T15:54:16Z</time>
      </trkpt>
      <trkpt lat="45.78838" lon="-1.21849">
        <ele>8.2</ele>
        <time>2023-10-26T15:54:21Z</time>
      </trkpt>
      <trkpt lat="45.78852" lon="-1.21824">
        <ele>8.2</ele>
        <time>2023-10-26T15:54:26Z</time>
      </trkpt>
      <trkpt lat="45.78866" lon="-1.21801">
        <ele>8.2</ele>
        <time>2023-10-26T15:54:31Z</time>
      </trkpt>
      <trkpt lat="45.78877" lon="-1.21776">
        <ele>8.2</ele>
        <time>2023-10-26T15:54:36Z</time>
      </trkpt>
      <trkpt lat="45.78889" lon="-1.21756">
        <ele>8.1</ele>
        <time>2023-10-26T15:54:40Z</time>
      </trkpt>
      <trkpt lat="45.78901" lon="-1.21734">
        <ele>8</ele>
        <time>2023-10-26T15:54:44Z</time>
      </trkpt>
      <trkpt lat="45.78913" lon="-1.21713">
        <ele>7.9</ele>
        <time>2023-10-26T15:54:48Z</time>
      </trkpt>
      <trkpt lat="45.78925" lon="-1.21693">
        <ele>7.8</ele>
        <time>2023-10-26T15:54:52Z</time>
      </trkpt>
      <trkpt lat="45.78936" lon="-1.21671">
        <ele>7.7</ele>
        <time>2023-10-26T15:54:56Z</time>
      </trkpt>
      <trkpt lat="45.78947" lon="-1.21649">
        <ele>7.7</ele>
        <time>2023-10-26T15:55:00Z</time>
      </trkpt>
      <trkpt lat="45.78958" lon="-1.21627">
        <ele>7.7</ele>
        <time>2023-10-26T15:55:04Z</time>
      </trkpt>
      <trkpt lat="45.78969" lon="-1.21605">
        <ele>7.7</ele>
        <time>2023-10-26T15:55:08Z</time>
      </trkpt>
      <trkpt lat="45.7898" lon="-1.21584">
        <ele>7.7</ele>
        <time>2023-10-26T15:55:12Z</time>
      </trkpt>
      <trkpt lat="45.78992" lon="-1.21564">
        <ele>7.7</ele>
        <time>2023-10-26T15:55:16Z</time>
      </trkpt>
      <trkpt lat="45.79004" lon="-1.21542">
        <ele>7.6</ele>
        <time>2023-10-26T15:55:20Z</time>
      </trkpt>
      <trkpt lat="45.7901" lon="-1.21531">
        <ele>7.5</ele>
        <time>2023-10-26T15:55:22Z</time>
      </trkpt>
      <trkpt lat="45.79015" lon="-1.21511">
        <ele>7.4</ele>
        <time>2023-10-26T15:55:25Z</time>
      </trkpt>
      <trkpt lat="45.79015" lon="-1.21484">
        <ele>7.4</ele>
        <time>2023-10-26T15:55:29Z</time>
      </trkpt>
      <trkpt lat="45.79017" lon="-1.21464">
        <ele>7.1</ele>
        <time>2023-10-26T15:55:32Z</time>
      </trkpt>
      <trkpt lat="45.79024" lon="-1.2144">
        <ele>7</ele>
        <time>2023-10-26T15:55:36Z</time>
      </trkpt>
      <trkpt lat="45.79032" lon="-1.2141">
        <ele>6.9</ele>
        <time>2023-10-26T15:55:41Z</time>
      </trkpt>
      <trkpt lat="45.79039" lon="-1.21386">
        <ele>6.9</ele>
        <time>2023-10-26T15:55:45Z</time>
      </trkpt>
      <trkpt lat="45.79046" lon="-1.21362">
        <ele>6.9</ele>
        <time>2023-10-26T15:55:49Z</time>
      </trkpt>
      <trkpt lat="45.79053" lon="-1.21332">
        <ele>7.1</ele>
        <time>2023-10-26T15:55:54Z</time>
      </trkpt>
      <trkpt lat="45.79056" lon="-1.21315">
        <ele>7.2</ele>
        <time>2023-10-26T15:55:57Z</time>
      </trkpt>
      <trkpt lat="45.7906" lon="-1.21297">
        <ele>7.3</ele>
        <time>2023-10-26T15:56:00Z</time>
      </trkpt>
      <trkpt lat="45.79063" lon="-1.21269">
        <ele>7.4</ele>
        <time>2023-10-26T15:56:07Z</time>
      </trkpt>
      <trkpt lat="45.79068" lon="-1.21242">
        <ele>7.5</ele>
        <time>2023-10-26T15:56:17Z</time>
      </trkpt>
      <trkpt lat="45.79074" lon="-1.21214">
        <ele>7.6</ele>
        <time>2023-10-26T15:56:27Z</time>
      </trkpt>
      <trkpt lat="45.79082" lon="-1.21191">
        <ele>7.6</ele>
        <time>2023-10-26T15:56:34Z</time>
      </trkpt>
      <trkpt lat="45.79089" lon="-1.21164">
        <ele>7.7</ele>
        <time>2023-10-26T15:56:41Z</time>
      </trkpt>
      <trkpt lat="45.79092" lon="-1.21138">
        <ele>7.7</ele>
        <time>2023-10-26T15:56:47Z</time>
      </trkpt>
      <trkpt lat="45.79095" lon="-1.21112">
        <ele>7.8</ele>
        <time>2023-10-26T15:56:53Z</time>
      </trkpt>
      <trkpt lat="45.79097" lon="-1.21091">
        <ele>7.9</ele>
        <time>2023-10-26T15:56:57Z</time>
      </trkpt>
      <trkpt lat="45.79101" lon="-1.21059">
        <ele>7.9</ele>
        <time>2023-10-26T15:57:02Z</time>
      </trkpt>
      <trkpt lat="45.79102" lon="-1.2104">
        <ele>8</ele>
        <time>2023-10-26T15:57:05Z</time>
      </trkpt>
      <trkpt lat="45.79102" lon="-1.21013">
        <ele>8</ele>
        <time>2023-10-26T15:57:09Z</time>
      </trkpt>
      <trkpt lat="45.79104" lon="-1.20982">
        <ele>8</ele>
        <time>2023-10-26T15:57:14Z</time>
      </trkpt>
      <trkpt lat="45.79104" lon="-1.20971">
        <ele>8</ele>
        <time>2023-10-26T15:57:16Z</time>
      </trkpt>
      <trkpt lat="45.79103" lon="-1.20943">
        <ele>7.9</ele>
        <time>2023-10-26T15:57:20Z</time>
      </trkpt>
      <trkpt lat="45.79101" lon="-1.20915">
        <ele>7.9</ele>
        <time>2023-10-26T15:57:24Z</time>
      </trkpt>
      <trkpt lat="45.79099" lon="-1.20888">
        <ele>7.9</ele>
        <time>2023-10-26T15:57:28Z</time>
      </trkpt>
      <trkpt lat="45.79097" lon="-1.2086">
        <ele>8</ele>
        <time>2023-10-26T15:57:32Z</time>
      </trkpt>
      <trkpt lat="45.79095" lon="-1.20834">
        <ele>8</ele>
        <time>2023-10-26T15:57:36Z</time>
      </trkpt>
      <trkpt lat="45.79092" lon="-1.20803">
        <ele>8.1</ele>
        <time>2023-10-26T15:57:41Z</time>
      </trkpt>
      <trkpt lat="45.79091" lon="-1.20784">
        <ele>8.2</ele>
        <time>2023-10-26T15:57:44Z</time>
      </trkpt>
      <trkpt lat="45.79089" lon="-1.20758">
        <ele>8.3</ele>
        <time>2023-10-26T15:57:48Z</time>
      </trkpt>
      <trkpt lat="45.79089" lon="-1.20751">
        <ele>8.4</ele>
        <time>2023-10-26T15:57:49Z</time>
      </trkpt>
      <trkpt lat="45.7909" lon="-1.20723">
        <ele>8.5</ele>
        <time>2023-10-26T15:57:53Z</time>
      </trkpt>
      <trkpt lat="45.7909" lon="-1.20696">
        <ele>8.6</ele>
        <time>2023-10-26T15:57:57Z</time>
      </trkpt>
      <trkpt lat="45.79089" lon="-1.20683">
        <ele>8.5</ele>
        <time>2023-10-26T15:57:58Z</time>
      </trkpt>
      <trkpt lat="45.79087" lon="-1.20677">
        <ele>8.5</ele>
        <time>2023-10-26T15:58:00Z</time>
      </trkpt>
      <trkpt lat="45.79083" lon="-1.20652">
        <ele>8.3</ele>
        <time>2023-10-26T15:58:04Z</time>
      </trkpt>
      <trkpt lat="45.79077" lon="-1.20626">
        <ele>8.1</ele>
        <time>2023-10-26T15:58:08Z</time>
      </trkpt>
      <trkpt lat="45.79074" lon="-1.206">
        <ele>8</ele>
        <time>2023-10-26T15:58:12Z</time>
      </trkpt>
      <trkpt lat="45.79072" lon="-1.20569">
        <ele>8</ele>
        <time>2023-10-26T15:58:17Z</time>
      </trkpt>
      <trkpt lat="45.79071" lon="-1.20563">
        <ele>8</ele>
        <time>2023-10-26T15:58:18Z</time>
      </trkpt>
      <trkpt lat="45.79066" lon="-1.20532">
        <ele>8.1</ele>
        <time>2023-10-26T15:58:23Z</time>
      </trkpt>
      <trkpt lat="45.79063" lon="-1.20501">
        <ele>8.3</ele>
        <time>2023-10-26T15:58:28Z</time>
      </trkpt>
      <trkpt lat="45.79058" lon="-1.2047">
        <ele>8.4</ele>
        <time>2023-10-26T15:58:33Z</time>
      </trkpt>
      <trkpt lat="45.79055" lon="-1.20451">
        <ele>8.3</ele>
        <time>2023-10-26T15:58:36Z</time>
      </trkpt>
      <trkpt lat="45.7905" lon="-1.20426">
        <ele>8.3</ele>
        <time>2023-10-26T15:58:40Z</time>
      </trkpt>
      <trkpt lat="45.79046" lon="-1.20395">
        <ele>8.2</ele>
        <time>2023-10-26T15:58:45Z</time>
      </trkpt>
      <trkpt lat="45.79041" lon="-1.20366">
        <ele>8.1</ele>
        <time>2023-10-26T15:58:50Z</time>
      </trkpt>
      <trkpt lat="45.79038" lon="-1.2034">
        <ele>8.1</ele>
        <time>2023-10-26T15:58:54Z</time>
      </trkpt>
      <trkpt lat="45.79035" lon="-1.20309">
        <ele>8</ele>
        <time>2023-10-26T15:58:59Z</time>
      </trkpt>
      <trkpt lat="45.79032" lon="-1.20283">
        <ele>8</ele>
        <time>2023-10-26T15:59:03Z</time>
      </trkpt>
      <trkpt lat="45.79029" lon="-1.20252">
        <ele>7.9</ele>
        <time>2023-10-26T15:59:08Z</time>
      </trkpt>
      <trkpt lat="45.79024" lon="-1.20221">
        <ele>7.9</ele>
        <time>2023-10-26T15:59:13Z</time>
      </trkpt>
      <trkpt lat="45.79023" lon="-1.20208">
        <ele>7.8</ele>
        <time>2023-10-26T15:59:15Z</time>
      </trkpt>
      <trkpt lat="45.79021" lon="-1.20182">
        <ele>7.8</ele>
        <time>2023-10-26T15:59:19Z</time>
      </trkpt>
      <trkpt lat="45.79017" lon="-1.20156">
        <ele>7.6</ele>
        <time>2023-10-26T15:59:23Z</time>
      </trkpt>
      <trkpt lat="45.79016" lon="-1.20143">
        <ele>7.6</ele>
        <time>2023-10-26T15:59:24Z</time>
      </trkpt>
      <trkpt lat="45.79016" lon="-1.20136">
        <ele>7.6</ele>
        <time>2023-10-26T15:59:26Z</time>
      </trkpt>
      <trkpt lat="45.79015" lon="-1.20109">
        <ele>7.5</ele>
        <time>2023-10-26T15:59:30Z</time>
      </trkpt>
      <trkpt lat="45.79011" lon="-1.20079">
        <ele>7.5</ele>
        <time>2023-10-26T15:59:35Z</time>
      </trkpt>
      <trkpt lat="45.79005" lon="-1.20053">
        <ele>7.4</ele>
        <time>2023-10-26T15:59:39Z</time>
      </trkpt>
      <trkpt lat="45.78998" lon="-1.20026">
        <ele>7.4</ele>
        <time>2023-10-26T15:59:43Z</time>
      </trkpt>
      <trkpt lat="45.78989" lon="-1.19998">
        <ele>7.3</ele>
        <time>2023-10-26T15:59:48Z</time>
      </trkpt>
      <trkpt lat="45.78979" lon="-1.19971">
        <ele>7.4</ele>
        <time>2023-10-26T15:59:53Z</time>
      </trkpt>
      <trkpt lat="45.78971" lon="-1.19948">
        <ele>7.4</ele>
        <time>2023-10-26T15:59:57Z</time>
      </trkpt>
      <trkpt lat="45.7896" lon="-1.19925">
        <ele>7.4</ele>
        <time>2023-10-26T16:00:01Z</time>
      </trkpt>
      <trkpt lat="45.78951" lon="-1.19902">
        <ele>7.4</ele>
        <time>2023-10-26T16:00:05Z</time>
      </trkpt>
      <trkpt lat="45.78944" lon="-1.19878">
        <ele>7.5</ele>
        <time>2023-10-26T16:00:09Z</time>
      </trkpt>
      <trkpt lat="45.78935" lon="-1.19855">
        <ele>7.5</ele>
        <time>2023-10-26T16:00:13Z</time>
      </trkpt>
      <trkpt lat="45.78926" lon="-1.19832">
        <ele>7.6</ele>
        <time>2023-10-26T16:00:17Z</time>
      </trkpt>
      <trkpt lat="45.78916" lon="-1.19804">
        <ele>7.9</ele>
        <time>2023-10-26T16:00:22Z</time>
      </trkpt>
      <trkpt lat="45.78908" lon="-1.19776">
        <ele>8</ele>
        <time>2023-10-26T16:00:27Z</time>
      </trkpt>
      <trkpt lat="45.78896" lon="-1.19748">
        <ele>8.1</ele>
        <time>2023-10-26T16:00:32Z</time>
      </trkpt>
      <trkpt lat="45.78888" lon="-1.19724">
        <ele>8.2</ele>
        <time>2023-10-26T16:00:36Z</time>
      </trkpt>
      <trkpt lat="45.78879" lon="-1.19696">
        <ele>8.4</ele>
        <time>2023-10-26T16:00:41Z</time>
      </trkpt>
      <trkpt lat="45.78876" lon="-1.19677">
        <ele>8.5</ele>
        <time>2023-10-26T16:00:44Z</time>
      </trkpt>
      <trkpt lat="45.78872" lon="-1.19647">
        <ele>8.8</ele>
        <time>2023-10-26T16:00:49Z</time>
      </trkpt>
      <trkpt lat="45.78872" lon="-1.1962">
        <ele>8.8</ele>
        <time>2023-10-26T16:00:53Z</time>
      </trkpt>
      <trkpt lat="45.78874" lon="-1.19588">
        <ele>8.8</ele>
        <time>2023-10-26T16:00:58Z</time>
      </trkpt>
      <trkpt lat="45.78876" lon="-1.19561">
        <ele>9.1</ele>
        <time>2023-10-26T16:01:02Z</time>
      </trkpt>
      <trkpt lat="45.78878" lon="-1.19549">
        <ele>9.2</ele>
        <time>2023-10-26T16:01:04Z</time>
      </trkpt>
      <trkpt lat="45.7888" lon="-1.1952">
        <ele>9.5</ele>
        <time>2023-10-26T16:01:09Z</time>
      </trkpt>
      <trkpt lat="45.78879" lon="-1.195">
        <ele>9.7</ele>
        <time>2023-10-26T16:01:12Z</time>
      </trkpt>
      <trkpt lat="45.78878" lon="-1.19472">
        <ele>9.8</ele>
        <time>2023-10-26T16:01:16Z</time>
      </trkpt>
      <trkpt lat="45.78879" lon="-1.19446">
        <ele>9.9</ele>
        <time>2023-10-26T16:01:20Z</time>
      </trkpt>
      <trkpt lat="45.78882" lon="-1.19413">
        <ele>9.9</ele>
        <time>2023-10-26T16:01:25Z</time>
      </trkpt>
      <trkpt lat="45.78884" lon="-1.19392">
        <ele>9.8</ele>
        <time>2023-10-26T16:01:28Z</time>
      </trkpt>
      <trkpt lat="45.78885" lon="-1.19362">
        <ele>9.9</ele>
        <time>2023-10-26T16:01:33Z</time>
      </trkpt>
      <trkpt lat="45.78884" lon="-1.19356">
        <ele>9.9</ele>
        <time>2023-10-26T16:01:34Z</time>
      </trkpt>
      <trkpt lat="45.78882" lon="-1.19329">
        <ele>9.9</ele>
        <time>2023-10-26T16:01:38Z</time>
      </trkpt>
      <trkpt lat="45.78881" lon="-1.19315">
        <ele>9.8</ele>
        <time>2023-10-26T16:01:40Z</time>
      </trkpt>
      <trkpt lat="45.78878" lon="-1.19287">
        <ele>9.6</ele>
        <time>2023-10-26T16:01:44Z</time>
      </trkpt>
      <trkpt lat="45.78877" lon="-1.19258">
        <ele>9</ele>
        <time>2023-10-26T16:01:48Z</time>
      </trkpt>
      <trkpt lat="45.78877" lon="-1.19232">
        <ele>8.9</ele>
        <time>2023-10-26T16:01:52Z</time>
      </trkpt>
      <trkpt lat="45.7888" lon="-1.192">
        <ele>8.8</ele>
        <time>2023-10-26T16:01:57Z</time>
      </trkpt>
      <trkpt lat="45.7888" lon="-1.1918">
        <ele>8.8</ele>
        <time>2023-10-26T16:02:00Z</time>
      </trkpt>
      <trkpt lat="45.7888" lon="-1.19153">
        <ele>8.8</ele>
        <time>2023-10-26T16:02:04Z</time>
      </trkpt>
      <trkpt lat="45.78881" lon="-1.19123">
        <ele>9</ele>
        <time>2023-10-26T16:02:09Z</time>
      </trkpt>
      <trkpt lat="45.78883" lon="-1.19094">
        <ele>9.2</ele>
        <time>2023-10-26T16:02:14Z</time>
      </trkpt>
      <trkpt lat="45.78884" lon="-1.19064">
        <ele>9.5</ele>
        <time>2023-10-26T16:02:19Z</time>
      </trkpt>
      <trkpt lat="45.78885" lon="-1.19032">
        <ele>9.7</ele>
        <time>2023-10-26T16:02:24Z</time>
      </trkpt>
      <trkpt lat="45.78885" lon="-1.19001">
        <ele>10</ele>
        <time>2023-10-26T16:02:29Z</time>
      </trkpt>
      <trkpt lat="45.78885" lon="-1.18971">
        <ele>10.4</ele>
        <time>2023-10-26T16:02:34Z</time>
      </trkpt>
      <trkpt lat="45.78884" lon="-1.18941">
        <ele>10.8</ele>
        <time>2023-10-26T16:02:39Z</time>
      </trkpt>
      <trkpt lat="45.78884" lon="-1.18934">
        <ele>10.9</ele>
        <time>2023-10-26T16:02:40Z</time>
      </trkpt>
      <trkpt lat="45.7888" lon="-1.18905">
        <ele>12</ele>
        <time>2023-10-26T16:02:45Z</time>
      </trkpt>
      <trkpt lat="45.78872" lon="-1.18877">
        <ele>12.2</ele>
        <time>2023-10-26T16:02:50Z</time>
      </trkpt>
      <trkpt lat="45.78861" lon="-1.18853">
        <ele>12.3</ele>
        <time>2023-10-26T16:02:55Z</time>
      </trkpt>
      <trkpt lat="45.78855" lon="-1.18843">
        <ele>12.4</ele>
        <time>2023-10-26T16:02:57Z</time>
      </trkpt>
      <trkpt lat="45.78842" lon="-1.18825">
        <ele>12.5</ele>
        <time>2023-10-26T16:03:01Z</time>
      </trkpt>
      <trkpt lat="45.78826" lon="-1.18803">
        <ele>12.6</ele>
        <time>2023-10-26T16:03:06Z</time>
      </trkpt>
      <trkpt lat="45.78814" lon="-1.18786">
        <ele>12.6</ele>
        <time>2023-10-26T16:03:10Z</time>
      </trkpt>
      <trkpt lat="45.78799" lon="-1.18767">
        <ele>12.6</ele>
        <time>2023-10-26T16:03:14Z</time>
      </trkpt>
      <trkpt lat="45.78786" lon="-1.18747">
        <ele>12.5</ele>
        <time>2023-10-26T16:03:18Z</time>
      </trkpt>
      <trkpt lat="45.7877" lon="-1.18729">
        <ele>12.5</ele>
        <time>2023-10-26T16:03:22Z</time>
      </trkpt>
      <trkpt lat="45.78756" lon="-1.18712">
        <ele>12.6</ele>
        <time>2023-10-26T16:03:26Z</time>
      </trkpt>
      <trkpt lat="45.78742" lon="-1.18694">
        <ele>12.7</ele>
        <time>2023-10-26T16:03:30Z</time>
      </trkpt>
      <trkpt lat="45.78728" lon="-1.18676">
        <ele>13</ele>
        <time>2023-10-26T16:03:34Z</time>
      </trkpt>
      <trkpt lat="45.78715" lon="-1.18656">
        <ele>13.1</ele>
        <time>2023-10-26T16:03:38Z</time>
      </trkpt>
      <trkpt lat="45.78703" lon="-1.18637">
        <ele>13.2</ele>
        <time>2023-10-26T16:03:42Z</time>
      </trkpt>
      <trkpt lat="45.78692" lon="-1.18615">
        <ele>13.3</ele>
        <time>2023-10-26T16:03:46Z</time>
      </trkpt>
      <trkpt lat="45.78681" lon="-1.18594">
        <ele>13.4</ele>
        <time>2023-10-26T16:03:50Z</time>
      </trkpt>
      <trkpt lat="45.78667" lon="-1.18573">
        <ele>13.4</ele>
        <time>2023-10-26T16:03:55Z</time>
      </trkpt>
      <trkpt lat="45.78657" lon="-1.18548">
        <ele>13.4</ele>
        <time>2023-10-26T16:04:00Z</time>
      </trkpt>
      <trkpt lat="45.78651" lon="-1.18523">
        <ele>13.2</ele>
        <time>2023-10-26T16:04:04Z</time>
      </trkpt>
      <trkpt lat="45.78646" lon="-1.18493">
        <ele>13</ele>
        <time>2023-10-26T16:04:09Z</time>
      </trkpt>
      <trkpt lat="45.78642" lon="-1.18463">
        <ele>12.9</ele>
        <time>2023-10-26T16:04:14Z</time>
      </trkpt>
      <trkpt lat="45.78638" lon="-1.18432">
        <ele>12.8</ele>
        <time>2023-10-26T16:04:19Z</time>
      </trkpt>
      <trkpt lat="45.78636" lon="-1.18405">
        <ele>12.7</ele>
        <time>2023-10-26T16:04:23Z</time>
      </trkpt>
      <trkpt lat="45.78637" lon="-1.18378">
        <ele>12.5</ele>
        <time>2023-10-26T16:04:27Z</time>
      </trkpt>
      <trkpt lat="45.78638" lon="-1.18359">
        <ele>12.3</ele>
        <time>2023-10-26T16:04:30Z</time>
      </trkpt>
      <trkpt lat="45.7864" lon="-1.1834">
        <ele>12.2</ele>
        <time>2023-10-26T16:04:33Z</time>
      </trkpt>
      <trkpt lat="45.78641" lon="-1.1831">
        <ele>12.1</ele>
        <time>2023-10-26T16:04:38Z</time>
      </trkpt>
      <trkpt lat="45.78642" lon="-1.18303">
        <ele>12.1</ele>
        <time>2023-10-26T16:04:39Z</time>
      </trkpt>
      <trkpt lat="45.78644" lon="-1.18291">
        <ele>12.1</ele>
        <time>2023-10-26T16:04:41Z</time>
      </trkpt>
      <trkpt lat="45.78645" lon="-1.18273">
        <ele>12.2</ele>
        <time>2023-10-26T16:04:44Z</time>
      </trkpt>
      <trkpt lat="45.78652" lon="-1.18243">
        <ele>12.2</ele>
        <time>2023-10-26T16:04:49Z</time>
      </trkpt>
      <trkpt lat="45.7866" lon="-1.18216">
        <ele>12.3</ele>
        <time>2023-10-26T16:04:54Z</time>
      </trkpt>
      <trkpt lat="45.78668" lon="-1.18187">
        <ele>12.3</ele>
        <time>2023-10-26T16:04:59Z</time>
      </trkpt>
      <trkpt lat="45.7867" lon="-1.18182">
        <ele>12.3</ele>
        <time>2023-10-26T16:05:00Z</time>
      </trkpt>
      <trkpt lat="45.7868" lon="-1.18159">
        <ele>12.4</ele>
        <time>2023-10-26T16:05:04Z</time>
      </trkpt>
      <trkpt lat="45.78689" lon="-1.18134">
        <ele>12.6</ele>
        <time>2023-10-26T16:05:09Z</time>
      </trkpt>
      <trkpt lat="45.78699" lon="-1.18108">
        <ele>12.8</ele>
        <time>2023-10-26T16:05:14Z</time>
      </trkpt>
      <trkpt lat="45.7871" lon="-1.18084">
        <ele>13</ele>
        <time>2023-10-26T16:05:18Z</time>
      </trkpt>
      <trkpt lat="45.7872" lon="-1.18061">
        <ele>13.1</ele>
        <time>2023-10-26T16:05:22Z</time>
      </trkpt>
      <trkpt lat="45.78732" lon="-1.18037">
        <ele>13.1</ele>
        <time>2023-10-26T16:05:26Z</time>
      </trkpt>
      <trkpt lat="45.78743" lon="-1.18011">
        <ele>13.1</ele>
        <time>2023-10-26T16:05:30Z</time>
      </trkpt>
      <trkpt lat="45.78752" lon="-1.17987">
        <ele>13.3</ele>
        <time>2023-10-26T16:05:34Z</time>
      </trkpt>
      <trkpt lat="45.78761" lon="-1.1796">
        <ele>13.7</ele>
        <time>2023-10-26T16:05:39Z</time>
      </trkpt>
      <trkpt lat="45.78769" lon="-1.17935">
        <ele>14</ele>
        <time>2023-10-26T16:05:44Z</time>
      </trkpt>
      <trkpt lat="45.78778" lon="-1.17912">
        <ele>14.3</ele>
        <time>2023-10-26T16:05:48Z</time>
      </trkpt>
      <trkpt lat="45.78787" lon="-1.17889">
        <ele>14.7</ele>
        <time>2023-10-26T16:05:52Z</time>
      </trkpt>
      <trkpt lat="45.78794" lon="-1.17864">
        <ele>15.1</ele>
        <time>2023-10-26T16:05:56Z</time>
      </trkpt>
      <trkpt lat="45.78796" lon="-1.17858">
        <ele>15.2</ele>
        <time>2023-10-26T16:05:57Z</time>
      </trkpt>
      <trkpt lat="45.78796" lon="-1.17852">
        <ele>15.3</ele>
        <time>2023-10-26T16:05:58Z</time>
      </trkpt>
      <trkpt lat="45.78798" lon="-1.17842">
        <ele>15.4</ele>
        <time>2023-10-26T16:06:00Z</time>
      </trkpt>
      <trkpt lat="45.78805" lon="-1.17818">
        <ele>15.8</ele>
        <time>2023-10-26T16:06:06Z</time>
      </trkpt>
      <trkpt lat="45.78813" lon="-1.17792">
        <ele>16.1</ele>
        <time>2023-10-26T16:06:15Z</time>
      </trkpt>
      <trkpt lat="45.7882" lon="-1.17769">
        <ele>16.3</ele>
        <time>2023-10-26T16:06:23Z</time>
      </trkpt>
      <trkpt lat="45.78829" lon="-1.17745">
        <ele>16.3</ele>
        <time>2023-10-26T16:06:32Z</time>
      </trkpt>
      <trkpt lat="45.78841" lon="-1.17722">
        <ele>16.2</ele>
        <time>2023-10-26T16:06:41Z</time>
      </trkpt>
      <trkpt lat="45.78851" lon="-1.17697">
        <ele>16</ele>
        <time>2023-10-26T16:06:49Z</time>
      </trkpt>
      <trkpt lat="45.7886" lon="-1.17673">
        <ele>15.8</ele>
        <time>2023-10-26T16:06:57Z</time>
      </trkpt>
      <trkpt lat="45.78866" lon="-1.17645">
        <ele>15.7</ele>
        <time>2023-10-26T16:07:05Z</time>
      </trkpt>
      <trkpt lat="45.78872" lon="-1.17621">
        <ele>15.7</ele>
        <time>2023-10-26T16:07:12Z</time>
      </trkpt>
      <trkpt lat="45.78882" lon="-1.17597">
        <ele>15.6</ele>
        <time>2023-10-26T16:07:19Z</time>
      </trkpt>
      <trkpt lat="45.7889" lon="-1.17573">
        <ele>15.4</ele>
        <time>2023-10-26T16:07:27Z</time>
      </trkpt>
      <trkpt lat="45.78901" lon="-1.17551">
        <ele>15.3</ele>
        <time>2023-10-26T16:07:34Z</time>
      </trkpt>
      <trkpt lat="45.78908" lon="-1.17527">
        <ele>15.2</ele>
        <time>2023-10-26T16:07:41Z</time>
      </trkpt>
      <trkpt lat="45.78917" lon="-1.17503">
        <ele>15.1</ele>
        <time>2023-10-26T16:07:48Z</time>
      </trkpt>
      <trkpt lat="45.78926" lon="-1.1748">
        <ele>15</ele>
        <time>2023-10-26T16:07:56Z</time>
      </trkpt>
      <trkpt lat="45.78935" lon="-1.17455">
        <ele>14.9</ele>
        <time>2023-10-26T16:08:03Z</time>
      </trkpt>
      <trkpt lat="45.78945" lon="-1.1743">
        <ele>14.8</ele>
        <time>2023-10-26T16:08:10Z</time>
      </trkpt>
      <trkpt lat="45.78954" lon="-1.17404">
        <ele>14.7</ele>
        <time>2023-10-26T16:08:17Z</time>
      </trkpt>
      <trkpt lat="45.7896" lon="-1.17377">
        <ele>14.7</ele>
        <time>2023-10-26T16:08:24Z</time>
      </trkpt>
      <trkpt lat="45.78972" lon="-1.17353">
        <ele>14.6</ele>
        <time>2023-10-26T16:08:31Z</time>
      </trkpt>
      <trkpt lat="45.7898" lon="-1.17329">
        <ele>14.4</ele>
        <time>2023-10-26T16:08:38Z</time>
      </trkpt>
      <trkpt lat="45.78989" lon="-1.17305">
        <ele>14.3</ele>
        <time>2023-10-26T16:08:44Z</time>
      </trkpt>
      <trkpt lat="45.78998" lon="-1.17278">
        <ele>14</ele>
        <time>2023-10-26T16:08:52Z</time>
      </trkpt>
      <trkpt lat="45.79006" lon="-1.17253">
        <ele>13.8</ele>
        <time>2023-10-26T16:08:58Z</time>
      </trkpt>
      <trkpt lat="45.79013" lon="-1.17228">
        <ele>13.5</ele>
        <time>2023-10-26T16:09:04Z</time>
      </trkpt>
      <trkpt lat="45.79022" lon="-1.17204">
        <ele>13.2</ele>
        <time>2023-10-26T16:09:10Z</time>
      </trkpt>
      <trkpt lat="45.7903" lon="-1.17181">
        <ele>12.9</ele>
        <time>2023-10-26T16:09:16Z</time>
      </trkpt>
      <trkpt lat="45.7904" lon="-1.17156">
        <ele>12.6</ele>
        <time>2023-10-26T16:09:24Z</time>
      </trkpt>
      <trkpt lat="45.7905" lon="-1.17133">
        <ele>12.3</ele>
        <time>2023-10-26T16:09:31Z</time>
      </trkpt>
      <trkpt lat="45.7906" lon="-1.1711">
        <ele>12.1</ele>
        <time>2023-10-26T16:09:37Z</time>
      </trkpt>
      <trkpt lat="45.7907" lon="-1.17087">
        <ele>12</ele>
        <time>2023-10-26T16:09:43Z</time>
      </trkpt>
      <trkpt lat="45.79079" lon="-1.17061">
        <ele>11.8</ele>
        <time>2023-10-26T16:09:51Z</time>
      </trkpt>
      <trkpt lat="45.79089" lon="-1.17036">
        <ele>11.8</ele>
        <time>2023-10-26T16:09:58Z</time>
      </trkpt>
      <trkpt lat="45.79095" lon="-1.17007">
        <ele>11.7</ele>
        <time>2023-10-26T16:10:06Z</time>
      </trkpt>
      <trkpt lat="45.79101" lon="-1.1698">
        <ele>11.7</ele>
        <time>2023-10-26T16:10:12Z</time>
      </trkpt>
      <trkpt lat="45.79107" lon="-1.16954">
        <ele>11.9</ele>
        <time>2023-10-26T16:10:20Z</time>
      </trkpt>
      <trkpt lat="45.79117" lon="-1.16932">
        <ele>12</ele>
        <time>2023-10-26T16:10:27Z</time>
      </trkpt>
      <trkpt lat="45.79126" lon="-1.16906">
        <ele>12.2</ele>
        <time>2023-10-26T16:10:36Z</time>
      </trkpt>
      <trkpt lat="45.79135" lon="-1.16883">
        <ele>12</ele>
        <time>2023-10-26T16:10:42Z</time>
      </trkpt>
      <trkpt lat="45.79146" lon="-1.16857">
        <ele>11.7</ele>
        <time>2023-10-26T16:10:49Z</time>
      </trkpt>
      <trkpt lat="45.79161" lon="-1.16835">
        <ele>11.6</ele>
        <time>2023-10-26T16:10:55Z</time>
      </trkpt>
      <trkpt lat="45.7917" lon="-1.16813">
        <ele>11.1</ele>
        <time>2023-10-26T16:11:01Z</time>
      </trkpt>
      <trkpt lat="45.79179" lon="-1.16787">
        <ele>10.8</ele>
        <time>2023-10-26T16:11:09Z</time>
      </trkpt>
      <trkpt lat="45.79189" lon="-1.16763">
        <ele>10.6</ele>
        <time>2023-10-26T16:11:16Z</time>
      </trkpt>
      <trkpt lat="45.79205" lon="-1.16746">
        <ele>10.4</ele>
        <time>2023-10-26T16:11:24Z</time>
      </trkpt>
      <trkpt lat="45.79223" lon="-1.16741">
        <ele>10.2</ele>
        <time>2023-10-26T16:11:30Z</time>
      </trkpt>
      <trkpt lat="45.79241" lon="-1.16742">
        <ele>10.1</ele>
        <time>2023-10-26T16:11:37Z</time>
      </trkpt>
      <trkpt lat="45.7926" lon="-1.16745">
        <ele>10.2</ele>
        <time>2023-10-26T16:11:44Z</time>
      </trkpt>
      <trkpt lat="45.79272" lon="-1.16724">
        <ele>10.9</ele>
        <time>2023-10-26T16:11:51Z</time>
      </trkpt>
      <trkpt lat="45.79276" lon="-1.167">
        <ele>11.6</ele>
        <time>2023-10-26T16:11:59Z</time>
      </trkpt>
      <trkpt lat="45.79278" lon="-1.16674">
        <ele>12.3</ele>
        <time>2023-10-26T16:12:06Z</time>
      </trkpt>
      <trkpt lat="45.79295" lon="-1.16663">
        <ele>13.1</ele>
        <time>2023-10-26T16:12:13Z</time>
      </trkpt>
      <trkpt lat="45.79312" lon="-1.1665">
        <ele>13.9</ele>
        <time>2023-10-26T16:12:20Z</time>
      </trkpt>
      <trkpt lat="45.79322" lon="-1.16629">
        <ele>14.4</ele>
        <time>2023-10-26T16:12:28Z</time>
      </trkpt>
      <trkpt lat="45.79321" lon="-1.16601">
        <ele>14.8</ele>
        <time>2023-10-26T16:12:36Z</time>
      </trkpt>
      <trkpt lat="45.79304" lon="-1.1659">
        <ele>14.6</ele>
        <time>2023-10-26T16:12:44Z</time>
      </trkpt>
      <trkpt lat="45.79303" lon="-1.16582">
        <ele>14.5</ele>
        <time>2023-10-26T16:12:46Z</time>
      </trkpt>
      <trkpt lat="45.79303" lon="-1.16555">
        <ele>14.1</ele>
        <time>2023-10-26T16:12:52Z</time>
      </trkpt>
      <trkpt lat="45.79302" lon="-1.16527">
        <ele>13.5</ele>
        <time>2023-10-26T16:13:00Z</time>
      </trkpt>
      <trkpt lat="45.79294" lon="-1.16503">
        <ele>12.9</ele>
        <time>2023-10-26T16:13:07Z</time>
      </trkpt>
      <trkpt lat="45.793" lon="-1.16475">
        <ele>12.5</ele>
        <time>2023-10-26T16:13:14Z</time>
      </trkpt>
      <trkpt lat="45.79301" lon="-1.16449">
        <ele>12</ele>
        <time>2023-10-26T16:13:20Z</time>
      </trkpt>
      <trkpt lat="45.79301" lon="-1.16423">
        <ele>11.7</ele>
        <time>2023-10-26T16:13:26Z</time>
      </trkpt>
      <trkpt lat="45.79305" lon="-1.16394">
        <ele>11.5</ele>
        <time>2023-10-26T16:13:33Z</time>
      </trkpt>
      <trkpt lat="45.7931" lon="-1.16363">
        <ele>11.4</ele>
        <time>2023-10-26T16:13:40Z</time>
      </trkpt>
      <trkpt lat="45.79311" lon="-1.16336">
        <ele>11.2</ele>
        <time>2023-10-26T16:13:45Z</time>
      </trkpt>
      <trkpt lat="45.7931" lon="-1.16306">
        <ele>10.9</ele>
        <time>2023-10-26T16:13:51Z</time>
      </trkpt>
      <trkpt lat="45.7931" lon="-1.16277">
        <ele>10.7</ele>
        <time>2023-10-26T16:13:57Z</time>
      </trkpt>
      <trkpt lat="45.79304" lon="-1.16249">
        <ele>10.5</ele>
        <time>2023-10-26T16:14:04Z</time>
      </trkpt>
      <trkpt lat="45.79297" lon="-1.16222">
        <ele>10.3</ele>
        <time>2023-10-26T16:14:11Z</time>
      </trkpt>
      <trkpt lat="45.79295" lon="-1.16194">
        <ele>10.2</ele>
        <time>2023-10-26T16:14:17Z</time>
      </trkpt>
      <trkpt lat="45.79289" lon="-1.16166">
        <ele>9.9</ele>
        <time>2023-10-26T16:14:23Z</time>
      </trkpt>
      <trkpt lat="45.79274" lon="-1.16147">
        <ele>9.8</ele>
        <time>2023-10-26T16:14:29Z</time>
      </trkpt>
      <trkpt lat="45.79257" lon="-1.1613">
        <ele>9.8</ele>
        <time>2023-10-26T16:14:36Z</time>
      </trkpt>
      <trkpt lat="45.7924" lon="-1.16117">
        <ele>9.8</ele>
        <time>2023-10-26T16:14:43Z</time>
      </trkpt>
      <trkpt lat="45.79228" lon="-1.16096">
        <ele>9.9</ele>
        <time>2023-10-26T16:14:50Z</time>
      </trkpt>
      <trkpt lat="45.79215" lon="-1.16073">
        <ele>9.7</ele>
        <time>2023-10-26T16:14:57Z</time>
      </trkpt>
      <trkpt lat="45.79197" lon="-1.16063">
        <ele>9.5</ele>
        <time>2023-10-26T16:15:03Z</time>
      </trkpt>
      <trkpt lat="45.79181" lon="-1.16052">
        <ele>9.4</ele>
        <time>2023-10-26T16:15:09Z</time>
      </trkpt>
      <trkpt lat="45.79162" lon="-1.16038">
        <ele>9.2</ele>
        <time>2023-10-26T16:15:16Z</time>
      </trkpt>
      <trkpt lat="45.79145" lon="-1.16029">
        <ele>9.1</ele>
        <time>2023-10-26T16:15:22Z</time>
      </trkpt>
      <trkpt lat="45.79125" lon="-1.16018">
        <ele>9</ele>
        <time>2023-10-26T16:15:29Z</time>
      </trkpt>
      <trkpt lat="45.79107" lon="-1.16007">
        <ele>8.9</ele>
        <time>2023-10-26T16:15:36Z</time>
      </trkpt>
      <trkpt lat="45.79088" lon="-1.15998">
        <ele>8.8</ele>
        <time>2023-10-26T16:15:42Z</time>
      </trkpt>
      <trkpt lat="45.79071" lon="-1.15988">
        <ele>8.7</ele>
        <time>2023-10-26T16:15:48Z</time>
      </trkpt>
      <trkpt lat="45.79053" lon="-1.1598">
        <ele>8.7</ele>
        <time>2023-10-26T16:15:54Z</time>
      </trkpt>
      <trkpt lat="45.79035" lon="-1.15971">
        <ele>8.6</ele>
        <time>2023-10-26T16:16:00Z</time>
      </trkpt>
      <trkpt lat="45.79018" lon="-1.15962">
        <ele>8.6</ele>
        <time>2023-10-26T16:16:06Z</time>
      </trkpt>
      <trkpt lat="45.78999" lon="-1.15952">
        <ele>8.5</ele>
        <time>2023-10-26T16:16:13Z</time>
      </trkpt>
      <trkpt lat="45.7898" lon="-1.15942">
        <ele>8.5</ele>
        <time>2023-10-26T16:16:20Z</time>
      </trkpt>
      <trkpt lat="45.78962" lon="-1.15932">
        <ele>8.4</ele>
        <time>2023-10-26T16:16:27Z</time>
      </trkpt>
      <trkpt lat="45.78944" lon="-1.15923">
        <ele>8.4</ele>
        <time>2023-10-26T16:16:34Z</time>
      </trkpt>
      <trkpt lat="45.7894" lon="-1.15923">
        <ele>8.4</ele>
        <time>2023-10-26T16:16:36Z</time>
      </trkpt>
      <trkpt lat="45.78929" lon="-1.15944">
        <ele>8.8</ele>
        <time>2023-10-26T16:16:43Z</time>
      </trkpt>
      <trkpt lat="45.78918" lon="-1.15966">
        <ele>8.9</ele>
        <time>2023-10-26T16:16:49Z</time>
      </trkpt>
      <trkpt lat="45.78907" lon="-1.15987">
        <ele>9.2</ele>
        <time>2023-10-26T16:16:55Z</time>
      </trkpt>
      <trkpt lat="45.78895" lon="-1.16011">
        <ele>9.2</ele>
        <time>2023-10-26T16:17:02Z</time>
      </trkpt>
      <trkpt lat="45.78887" lon="-1.16035">
        <ele>9.1</ele>
        <time>2023-10-26T16:17:08Z</time>
      </trkpt>
      <trkpt lat="45.78878" lon="-1.16057">
        <ele>9.2</ele>
        <time>2023-10-26T16:17:14Z</time>
      </trkpt>
      <trkpt lat="45.78867" lon="-1.16078">
        <ele>9.2</ele>
        <time>2023-10-26T16:17:20Z</time>
      </trkpt>
      <trkpt lat="45.78857" lon="-1.16104">
        <ele>9.2</ele>
        <time>2023-10-26T16:17:27Z</time>
      </trkpt>
      <trkpt lat="45.78848" lon="-1.16126">
        <ele>9.3</ele>
        <time>2023-10-26T16:17:33Z</time>
      </trkpt>
      <trkpt lat="45.78838" lon="-1.16149">
        <ele>9.3</ele>
        <time>2023-10-26T16:17:39Z</time>
      </trkpt>
      <trkpt lat="45.78827" lon="-1.16173">
        <ele>9.5</ele>
        <time>2023-10-26T16:17:46Z</time>
      </trkpt>
      <trkpt lat="45.78815" lon="-1.16198">
        <ele>9.6</ele>
        <time>2023-10-26T16:17:53Z</time>
      </trkpt>
      <trkpt lat="45.78806" lon="-1.16222">
        <ele>9.7</ele>
        <time>2023-10-26T16:17:59Z</time>
      </trkpt>
      <trkpt lat="45.78796" lon="-1.16247">
        <ele>10</ele>
        <time>2023-10-26T16:18:06Z</time>
      </trkpt>
      <trkpt lat="45.78792" lon="-1.16255">
        <ele>10</ele>
        <time>2023-10-26T16:18:09Z</time>
      </trkpt>
    </trkseg>
  </trk>
</gpx>